<?xml version="1.0" encoding="UTF-8" standalone="no" ?>
<gpx xmlns="http://www.topografix.com/GPX/1/1" xmlns:xsi="http://www.w3.org/2001/XMLSchema-instance" xsi:schemaLocation="http://www.topografix.com/GPX/1/1 http://www.topografix.com/GPX/1/1/gpx.xsd" version="1.1" creator="VisuGPX - https://www.visugpx.com">
  <metadata>
    <name>Au dessus de Cabrières d'Avignon</name>
    <desc><![CDATA[Balade au dessus de Cabrières d'Avignon et dans La Senancole.]]></desc>
  </metadata>
  <trk>
    <name><![CDATA[2021-01-25 14-08-58]]></name>
    <trkseg>
      <trkpt lat="43.89706" lon="5.15436">
        <ele>213.07</ele>
        <time>2021-01-25T08:23:52Z</time>
      </trkpt>
      <trkpt lat="43.89706" lon="5.15436">
        <ele>213.07</ele>
        <time>2021-01-25T08:23:53Z</time>
      </trkpt>
      <trkpt lat="43.89707" lon="5.15435">
        <ele>213.07</ele>
        <time>2021-01-25T08:24:26Z</time>
      </trkpt>
      <trkpt lat="43.89708" lon="5.15434">
        <ele>213.07</ele>
        <time>2021-01-25T08:24:52Z</time>
      </trkpt>
      <trkpt lat="43.89707" lon="5.15433">
        <ele>213.07</ele>
        <time>2021-01-25T08:25:29Z</time>
      </trkpt>
      <trkpt lat="43.89705" lon="5.15432">
        <ele>213.07</ele>
        <time>2021-01-25T08:25:54Z</time>
      </trkpt>
      <trkpt lat="43.89702" lon="5.15431">
        <ele>213.07</ele>
        <time>2021-01-25T08:26:30Z</time>
      </trkpt>
      <trkpt lat="43.89702" lon="5.15432">
        <ele>213.07</ele>
        <time>2021-01-25T08:27:03Z</time>
      </trkpt>
      <trkpt lat="43.89701" lon="5.1543">
        <ele>213.07</ele>
        <time>2021-01-25T08:27:35Z</time>
      </trkpt>
      <trkpt lat="43.89703" lon="5.15435">
        <ele>213.07</ele>
        <time>2021-01-25T08:28:08Z</time>
      </trkpt>
      <trkpt lat="43.89704" lon="5.15436">
        <ele>213.07</ele>
        <time>2021-01-25T08:28:39Z</time>
      </trkpt>
      <trkpt lat="43.89708" lon="5.15438">
        <ele>213.07</ele>
        <time>2021-01-25T08:29:03Z</time>
      </trkpt>
      <trkpt lat="43.89708" lon="5.15439">
        <ele>213.07</ele>
        <time>2021-01-25T08:29:31Z</time>
      </trkpt>
      <trkpt lat="43.89707" lon="5.15436">
        <ele>213.07</ele>
        <time>2021-01-25T08:30:04Z</time>
      </trkpt>
      <trkpt lat="43.89708" lon="5.15437">
        <ele>213.07</ele>
        <time>2021-01-25T08:30:33Z</time>
      </trkpt>
      <trkpt lat="43.89713" lon="5.15456">
        <ele>213.07</ele>
        <time>2021-01-25T08:30:55Z</time>
      </trkpt>
      <trkpt lat="43.89722" lon="5.15467">
        <ele>214.51</ele>
        <time>2021-01-25T08:31:13Z</time>
      </trkpt>
      <trkpt lat="43.89733" lon="5.15474">
        <ele>215.95</ele>
        <time>2021-01-25T08:31:27Z</time>
      </trkpt>
      <trkpt lat="43.89736" lon="5.15475">
        <ele>215.95</ele>
        <time>2021-01-25T08:31:29Z</time>
      </trkpt>
      <trkpt lat="43.8975" lon="5.1548">
        <ele>216.91</ele>
        <time>2021-01-25T08:31:43Z</time>
      </trkpt>
      <trkpt lat="43.89768" lon="5.15495">
        <ele>218.36</ele>
        <time>2021-01-25T08:32:06Z</time>
      </trkpt>
      <trkpt lat="43.89782" lon="5.1551">
        <ele>219.32</ele>
        <time>2021-01-25T08:32:23Z</time>
      </trkpt>
      <trkpt lat="43.89795" lon="5.15529">
        <ele>220.76</ele>
        <time>2021-01-25T08:32:40Z</time>
      </trkpt>
      <trkpt lat="43.89806" lon="5.15541">
        <ele>222.2</ele>
        <time>2021-01-25T08:32:56Z</time>
      </trkpt>
      <trkpt lat="43.89823" lon="5.15563">
        <ele>223.16</ele>
        <time>2021-01-25T08:33:16Z</time>
      </trkpt>
      <trkpt lat="43.8983" lon="5.15575">
        <ele>223.16</ele>
        <time>2021-01-25T08:33:25Z</time>
      </trkpt>
      <trkpt lat="43.89837" lon="5.15582">
        <ele>224.12</ele>
        <time>2021-01-25T08:33:33Z</time>
      </trkpt>
      <trkpt lat="43.89849" lon="5.156">
        <ele>224.61</ele>
        <time>2021-01-25T08:33:51Z</time>
      </trkpt>
      <trkpt lat="43.89863" lon="5.15629">
        <ele>225.57</ele>
        <time>2021-01-25T08:34:13Z</time>
      </trkpt>
      <trkpt lat="43.89863" lon="5.1563">
        <ele>225.57</ele>
        <time>2021-01-25T08:34:14Z</time>
      </trkpt>
      <trkpt lat="43.89869" lon="5.1564">
        <ele>226.05</ele>
        <time>2021-01-25T08:34:22Z</time>
      </trkpt>
      <trkpt lat="43.89873" lon="5.15645">
        <ele>226.53</ele>
        <time>2021-01-25T08:34:27Z</time>
      </trkpt>
      <trkpt lat="43.89889" lon="5.15663">
        <ele>227.49</ele>
        <time>2021-01-25T08:34:45Z</time>
      </trkpt>
      <trkpt lat="43.89891" lon="5.15665">
        <ele>227.49</ele>
        <time>2021-01-25T08:34:47Z</time>
      </trkpt>
      <trkpt lat="43.89894" lon="5.15667">
        <ele>227.97</ele>
        <time>2021-01-25T08:34:50Z</time>
      </trkpt>
      <trkpt lat="43.89898" lon="5.15672">
        <ele>227.97</ele>
        <time>2021-01-25T08:34:55Z</time>
      </trkpt>
      <trkpt lat="43.89915" lon="5.1568">
        <ele>229.41</ele>
        <time>2021-01-25T08:35:12Z</time>
      </trkpt>
      <trkpt lat="43.89917" lon="5.15683">
        <ele>229.89</ele>
        <time>2021-01-25T08:35:15Z</time>
      </trkpt>
      <trkpt lat="43.89931" lon="5.15692">
        <ele>231.33</ele>
        <time>2021-01-25T08:35:30Z</time>
      </trkpt>
      <trkpt lat="43.89942" lon="5.15697">
        <ele>231.81</ele>
        <time>2021-01-25T08:35:40Z</time>
      </trkpt>
      <trkpt lat="43.8996" lon="5.1571">
        <ele>233.74</ele>
        <time>2021-01-25T08:35:58Z</time>
      </trkpt>
      <trkpt lat="43.89976" lon="5.15717">
        <ele>235.66</ele>
        <time>2021-01-25T08:36:15Z</time>
      </trkpt>
      <trkpt lat="43.89996" lon="5.15724">
        <ele>237.1</ele>
        <time>2021-01-25T08:36:33Z</time>
      </trkpt>
      <trkpt lat="43.90017" lon="5.15734">
        <ele>238.54</ele>
        <time>2021-01-25T08:36:52Z</time>
      </trkpt>
      <trkpt lat="43.90036" lon="5.15744">
        <ele>239.51</ele>
        <time>2021-01-25T08:37:08Z</time>
      </trkpt>
      <trkpt lat="43.90055" lon="5.15753">
        <ele>240.47</ele>
        <time>2021-01-25T08:37:25Z</time>
      </trkpt>
      <trkpt lat="43.9006" lon="5.15755">
        <ele>240.95</ele>
        <time>2021-01-25T08:37:30Z</time>
      </trkpt>
      <trkpt lat="43.90075" lon="5.15764">
        <ele>242.39</ele>
        <time>2021-01-25T08:37:46Z</time>
      </trkpt>
      <trkpt lat="43.90089" lon="5.15777">
        <ele>242.87</ele>
        <time>2021-01-25T08:38:00Z</time>
      </trkpt>
      <trkpt lat="43.90094" lon="5.15785">
        <ele>243.83</ele>
        <time>2021-01-25T08:38:08Z</time>
      </trkpt>
      <trkpt lat="43.90115" lon="5.15798">
        <ele>245.27</ele>
        <time>2021-01-25T08:38:27Z</time>
      </trkpt>
      <trkpt lat="43.90134" lon="5.15808">
        <ele>247.2</ele>
        <time>2021-01-25T08:38:44Z</time>
      </trkpt>
      <trkpt lat="43.90145" lon="5.15815">
        <ele>248.64</ele>
        <time>2021-01-25T08:38:57Z</time>
      </trkpt>
      <trkpt lat="43.90162" lon="5.15827">
        <ele>250.08</ele>
        <time>2021-01-25T08:39:15Z</time>
      </trkpt>
      <trkpt lat="43.90177" lon="5.15841">
        <ele>252</ele>
        <time>2021-01-25T08:39:31Z</time>
      </trkpt>
      <trkpt lat="43.9019" lon="5.15855">
        <ele>252.96</ele>
        <time>2021-01-25T08:39:45Z</time>
      </trkpt>
      <trkpt lat="43.90191" lon="5.15857">
        <ele>253.44</ele>
        <time>2021-01-25T08:39:47Z</time>
      </trkpt>
      <trkpt lat="43.90192" lon="5.15863">
        <ele>253.44</ele>
        <time>2021-01-25T08:39:51Z</time>
      </trkpt>
      <trkpt lat="43.90201" lon="5.1589">
        <ele>252.96</ele>
        <time>2021-01-25T08:40:09Z</time>
      </trkpt>
      <trkpt lat="43.90213" lon="5.15916">
        <ele>253.93</ele>
        <time>2021-01-25T08:40:28Z</time>
      </trkpt>
      <trkpt lat="43.90224" lon="5.15933">
        <ele>253.93</ele>
        <time>2021-01-25T08:40:42Z</time>
      </trkpt>
      <trkpt lat="43.90236" lon="5.15954">
        <ele>254.41</ele>
        <time>2021-01-25T08:40:59Z</time>
      </trkpt>
      <trkpt lat="43.90251" lon="5.15977">
        <ele>253.93</ele>
        <time>2021-01-25T08:41:16Z</time>
      </trkpt>
      <trkpt lat="43.90263" lon="5.16001">
        <ele>252.96</ele>
        <time>2021-01-25T08:41:34Z</time>
      </trkpt>
      <trkpt lat="43.90281" lon="5.16023">
        <ele>252.96</ele>
        <time>2021-01-25T08:41:54Z</time>
      </trkpt>
      <trkpt lat="43.90295" lon="5.16042">
        <ele>252.48</ele>
        <time>2021-01-25T08:42:10Z</time>
      </trkpt>
      <trkpt lat="43.90309" lon="5.16065">
        <ele>252.48</ele>
        <time>2021-01-25T08:42:27Z</time>
      </trkpt>
      <trkpt lat="43.90324" lon="5.1609">
        <ele>252.48</ele>
        <time>2021-01-25T08:42:44Z</time>
      </trkpt>
      <trkpt lat="43.90338" lon="5.16109">
        <ele>252</ele>
        <time>2021-01-25T08:43:00Z</time>
      </trkpt>
      <trkpt lat="43.90351" lon="5.16127">
        <ele>252</ele>
        <time>2021-01-25T08:43:16Z</time>
      </trkpt>
      <trkpt lat="43.90365" lon="5.16142">
        <ele>251.52</ele>
        <time>2021-01-25T08:43:30Z</time>
      </trkpt>
      <trkpt lat="43.90382" lon="5.16157">
        <ele>251.52</ele>
        <time>2021-01-25T08:43:46Z</time>
      </trkpt>
      <trkpt lat="43.90398" lon="5.16175">
        <ele>252</ele>
        <time>2021-01-25T08:44:03Z</time>
      </trkpt>
      <trkpt lat="43.9041" lon="5.16185">
        <ele>252</ele>
        <time>2021-01-25T08:44:16Z</time>
      </trkpt>
      <trkpt lat="43.90429" lon="5.16187">
        <ele>252.96</ele>
        <time>2021-01-25T08:44:30Z</time>
      </trkpt>
      <trkpt lat="43.90452" lon="5.16199">
        <ele>253.44</ele>
        <time>2021-01-25T08:44:50Z</time>
      </trkpt>
      <trkpt lat="43.90469" lon="5.16206">
        <ele>253.93</ele>
        <time>2021-01-25T08:45:09Z</time>
      </trkpt>
      <trkpt lat="43.90482" lon="5.1622">
        <ele>254.41</ele>
        <time>2021-01-25T08:45:25Z</time>
      </trkpt>
      <trkpt lat="43.90496" lon="5.16234">
        <ele>254.41</ele>
        <time>2021-01-25T08:45:40Z</time>
      </trkpt>
      <trkpt lat="43.90513" lon="5.16252">
        <ele>254.89</ele>
        <time>2021-01-25T08:45:57Z</time>
      </trkpt>
      <trkpt lat="43.9053" lon="5.1627">
        <ele>255.37</ele>
        <time>2021-01-25T08:46:15Z</time>
      </trkpt>
      <trkpt lat="43.90543" lon="5.16285">
        <ele>255.37</ele>
        <time>2021-01-25T08:46:29Z</time>
      </trkpt>
      <trkpt lat="43.90563" lon="5.16291">
        <ele>254.89</ele>
        <time>2021-01-25T08:46:47Z</time>
      </trkpt>
      <trkpt lat="43.90568" lon="5.16291">
        <ele>254.89</ele>
        <time>2021-01-25T08:46:50Z</time>
      </trkpt>
      <trkpt lat="43.9058" lon="5.16291">
        <ele>253.44</ele>
        <time>2021-01-25T08:47:01Z</time>
      </trkpt>
      <trkpt lat="43.90583" lon="5.1629">
        <ele>253.44</ele>
        <time>2021-01-25T08:47:04Z</time>
      </trkpt>
      <trkpt lat="43.906" lon="5.16299">
        <ele>252.48</ele>
        <time>2021-01-25T08:47:20Z</time>
      </trkpt>
      <trkpt lat="43.90614" lon="5.16303">
        <ele>251.52</ele>
        <time>2021-01-25T08:47:31Z</time>
      </trkpt>
      <trkpt lat="43.90618" lon="5.16304">
        <ele>251.52</ele>
        <time>2021-01-25T08:47:35Z</time>
      </trkpt>
      <trkpt lat="43.90623" lon="5.16305">
        <ele>251.52</ele>
        <time>2021-01-25T08:47:39Z</time>
      </trkpt>
      <trkpt lat="43.90636" lon="5.16294">
        <ele>252</ele>
        <time>2021-01-25T08:47:56Z</time>
      </trkpt>
      <trkpt lat="43.90645" lon="5.16286">
        <ele>252.48</ele>
        <time>2021-01-25T08:48:07Z</time>
      </trkpt>
      <trkpt lat="43.90666" lon="5.16258">
        <ele>253.93</ele>
        <time>2021-01-25T08:48:28Z</time>
      </trkpt>
      <trkpt lat="43.90683" lon="5.16238">
        <ele>255.37</ele>
        <time>2021-01-25T08:48:46Z</time>
      </trkpt>
      <trkpt lat="43.90686" lon="5.16235">
        <ele>255.85</ele>
        <time>2021-01-25T08:48:49Z</time>
      </trkpt>
      <trkpt lat="43.90696" lon="5.16223">
        <ele>257.29</ele>
        <time>2021-01-25T08:49:04Z</time>
      </trkpt>
      <trkpt lat="43.90707" lon="5.16203">
        <ele>258.25</ele>
        <time>2021-01-25T08:49:20Z</time>
      </trkpt>
      <trkpt lat="43.90718" lon="5.16189">
        <ele>258.73</ele>
        <time>2021-01-25T08:49:32Z</time>
      </trkpt>
      <trkpt lat="43.90726" lon="5.16176">
        <ele>259.21</ele>
        <time>2021-01-25T08:49:43Z</time>
      </trkpt>
      <trkpt lat="43.90747" lon="5.16148">
        <ele>260.17</ele>
        <time>2021-01-25T08:50:08Z</time>
      </trkpt>
      <trkpt lat="43.90772" lon="5.16128">
        <ele>261.62</ele>
        <time>2021-01-25T08:50:31Z</time>
      </trkpt>
      <trkpt lat="43.90788" lon="5.1612">
        <ele>262.58</ele>
        <time>2021-01-25T08:50:47Z</time>
      </trkpt>
      <trkpt lat="43.90808" lon="5.16113">
        <ele>264.02</ele>
        <time>2021-01-25T08:51:03Z</time>
      </trkpt>
      <trkpt lat="43.90809" lon="5.16113">
        <ele>264.02</ele>
        <time>2021-01-25T08:51:04Z</time>
      </trkpt>
      <trkpt lat="43.90811" lon="5.16111">
        <ele>264.5</ele>
        <time>2021-01-25T08:51:06Z</time>
      </trkpt>
      <trkpt lat="43.90826" lon="5.16107">
        <ele>264.98</ele>
        <time>2021-01-25T08:51:21Z</time>
      </trkpt>
      <trkpt lat="43.9083" lon="5.16108">
        <ele>264.98</ele>
        <time>2021-01-25T08:51:26Z</time>
      </trkpt>
      <trkpt lat="43.90854" lon="5.16103">
        <ele>265.46</ele>
        <time>2021-01-25T08:51:43Z</time>
      </trkpt>
      <trkpt lat="43.90872" lon="5.161">
        <ele>266.42</ele>
        <time>2021-01-25T08:51:57Z</time>
      </trkpt>
      <trkpt lat="43.90879" lon="5.16098">
        <ele>266.42</ele>
        <time>2021-01-25T08:52:03Z</time>
      </trkpt>
      <trkpt lat="43.90886" lon="5.16093">
        <ele>266.9</ele>
        <time>2021-01-25T08:52:10Z</time>
      </trkpt>
      <trkpt lat="43.90902" lon="5.16076">
        <ele>267.86</ele>
        <time>2021-01-25T08:52:25Z</time>
      </trkpt>
      <trkpt lat="43.90917" lon="5.16059">
        <ele>269.79</ele>
        <time>2021-01-25T08:52:43Z</time>
      </trkpt>
      <trkpt lat="43.90933" lon="5.16046">
        <ele>270.27</ele>
        <time>2021-01-25T08:52:57Z</time>
      </trkpt>
      <trkpt lat="43.90946" lon="5.16034">
        <ele>271.23</ele>
        <time>2021-01-25T08:53:11Z</time>
      </trkpt>
      <trkpt lat="43.90963" lon="5.16025">
        <ele>272.67</ele>
        <time>2021-01-25T08:53:25Z</time>
      </trkpt>
      <trkpt lat="43.90979" lon="5.16022">
        <ele>274.59</ele>
        <time>2021-01-25T08:53:40Z</time>
      </trkpt>
      <trkpt lat="43.90994" lon="5.16021">
        <ele>275.56</ele>
        <time>2021-01-25T08:53:53Z</time>
      </trkpt>
      <trkpt lat="43.91007" lon="5.16021">
        <ele>276.52</ele>
        <time>2021-01-25T08:54:07Z</time>
      </trkpt>
      <trkpt lat="43.91024" lon="5.16029">
        <ele>277</ele>
        <time>2021-01-25T08:54:19Z</time>
      </trkpt>
      <trkpt lat="43.91034" lon="5.16036">
        <ele>277.96</ele>
        <time>2021-01-25T08:54:29Z</time>
      </trkpt>
      <trkpt lat="43.91056" lon="5.16035">
        <ele>279.4</ele>
        <time>2021-01-25T08:54:46Z</time>
      </trkpt>
      <trkpt lat="43.91076" lon="5.1604">
        <ele>279.88</ele>
        <time>2021-01-25T08:55:03Z</time>
      </trkpt>
      <trkpt lat="43.91086" lon="5.16044">
        <ele>280.84</ele>
        <time>2021-01-25T08:55:12Z</time>
      </trkpt>
      <trkpt lat="43.91094" lon="5.16051">
        <ele>281.8</ele>
        <time>2021-01-25T08:55:20Z</time>
      </trkpt>
      <trkpt lat="43.91098" lon="5.16063">
        <ele>282.77</ele>
        <time>2021-01-25T08:55:29Z</time>
      </trkpt>
      <trkpt lat="43.91109" lon="5.16066">
        <ele>284.21</ele>
        <time>2021-01-25T08:55:42Z</time>
      </trkpt>
      <trkpt lat="43.91115" lon="5.16066">
        <ele>285.17</ele>
        <time>2021-01-25T08:55:52Z</time>
      </trkpt>
      <trkpt lat="43.9113" lon="5.16067">
        <ele>286.61</ele>
        <time>2021-01-25T08:56:06Z</time>
      </trkpt>
      <trkpt lat="43.9115" lon="5.16066">
        <ele>287.57</ele>
        <time>2021-01-25T08:56:22Z</time>
      </trkpt>
      <trkpt lat="43.91156" lon="5.1607">
        <ele>288.05</ele>
        <time>2021-01-25T08:56:37Z</time>
      </trkpt>
      <trkpt lat="43.91161" lon="5.16066">
        <ele>287.57</ele>
        <time>2021-01-25T08:57:07Z</time>
      </trkpt>
      <trkpt lat="43.91168" lon="5.16061">
        <ele>287.57</ele>
        <time>2021-01-25T08:57:45Z</time>
      </trkpt>
      <trkpt lat="43.91163" lon="5.16061">
        <ele>287.57</ele>
        <time>2021-01-25T08:58:04Z</time>
      </trkpt>
      <trkpt lat="43.91163" lon="5.16061">
        <ele>287.57</ele>
        <time>2021-01-25T08:58:30Z</time>
      </trkpt>
      <trkpt lat="43.91164" lon="5.16062">
        <ele>287.57</ele>
        <time>2021-01-25T08:58:33Z</time>
      </trkpt>
      <trkpt lat="43.9117" lon="5.16059">
        <ele>287.57</ele>
        <time>2021-01-25T08:58:58Z</time>
      </trkpt>
      <trkpt lat="43.91175" lon="5.16072">
        <ele>287.57</ele>
        <time>2021-01-25T08:59:27Z</time>
      </trkpt>
      <trkpt lat="43.91177" lon="5.16072">
        <ele>287.57</ele>
        <time>2021-01-25T08:59:28Z</time>
      </trkpt>
      <trkpt lat="43.91182" lon="5.16079">
        <ele>288.53</ele>
        <time>2021-01-25T08:59:34Z</time>
      </trkpt>
      <trkpt lat="43.91191" lon="5.16089">
        <ele>289.97</ele>
        <time>2021-01-25T08:59:49Z</time>
      </trkpt>
      <trkpt lat="43.91206" lon="5.16103">
        <ele>291.42</ele>
        <time>2021-01-25T09:00:08Z</time>
      </trkpt>
      <trkpt lat="43.91217" lon="5.16114">
        <ele>292.38</ele>
        <time>2021-01-25T09:00:24Z</time>
      </trkpt>
      <trkpt lat="43.91233" lon="5.16119">
        <ele>293.34</ele>
        <time>2021-01-25T09:00:38Z</time>
      </trkpt>
      <trkpt lat="43.9125" lon="5.16128">
        <ele>294.78</ele>
        <time>2021-01-25T09:00:58Z</time>
      </trkpt>
      <trkpt lat="43.91256" lon="5.16134">
        <ele>296.22</ele>
        <time>2021-01-25T09:01:14Z</time>
      </trkpt>
      <trkpt lat="43.91267" lon="5.16137">
        <ele>296.7</ele>
        <time>2021-01-25T09:01:27Z</time>
      </trkpt>
      <trkpt lat="43.91295" lon="5.16131">
        <ele>298.15</ele>
        <time>2021-01-25T09:01:52Z</time>
      </trkpt>
      <trkpt lat="43.91315" lon="5.16123">
        <ele>298.63</ele>
        <time>2021-01-25T09:02:07Z</time>
      </trkpt>
      <trkpt lat="43.91329" lon="5.16123">
        <ele>299.59</ele>
        <time>2021-01-25T09:02:21Z</time>
      </trkpt>
      <trkpt lat="43.91333" lon="5.16124">
        <ele>299.59</ele>
        <time>2021-01-25T09:02:25Z</time>
      </trkpt>
      <trkpt lat="43.91343" lon="5.16127">
        <ele>301.03</ele>
        <time>2021-01-25T09:02:38Z</time>
      </trkpt>
      <trkpt lat="43.91355" lon="5.16131">
        <ele>301.51</ele>
        <time>2021-01-25T09:02:49Z</time>
      </trkpt>
      <trkpt lat="43.91359" lon="5.16137">
        <ele>301.99</ele>
        <time>2021-01-25T09:02:55Z</time>
      </trkpt>
      <trkpt lat="43.91378" lon="5.16148">
        <ele>303.43</ele>
        <time>2021-01-25T09:03:14Z</time>
      </trkpt>
      <trkpt lat="43.91389" lon="5.1615">
        <ele>304.39</ele>
        <time>2021-01-25T09:03:24Z</time>
      </trkpt>
      <trkpt lat="43.91394" lon="5.16151">
        <ele>304.39</ele>
        <time>2021-01-25T09:03:27Z</time>
      </trkpt>
      <trkpt lat="43.91409" lon="5.16147">
        <ele>305.84</ele>
        <time>2021-01-25T09:03:39Z</time>
      </trkpt>
      <trkpt lat="43.91425" lon="5.16142">
        <ele>306.32</ele>
        <time>2021-01-25T09:03:54Z</time>
      </trkpt>
      <trkpt lat="43.91432" lon="5.16138">
        <ele>306.8</ele>
        <time>2021-01-25T09:04:01Z</time>
      </trkpt>
      <trkpt lat="43.91435" lon="5.16138">
        <ele>306.8</ele>
        <time>2021-01-25T09:04:03Z</time>
      </trkpt>
      <trkpt lat="43.91437" lon="5.1614">
        <ele>306.8</ele>
        <time>2021-01-25T09:04:05Z</time>
      </trkpt>
      <trkpt lat="43.9145" lon="5.16145">
        <ele>307.76</ele>
        <time>2021-01-25T09:04:17Z</time>
      </trkpt>
      <trkpt lat="43.91454" lon="5.16146">
        <ele>307.76</ele>
        <time>2021-01-25T09:04:21Z</time>
      </trkpt>
      <trkpt lat="43.91473" lon="5.16143">
        <ele>308.72</ele>
        <time>2021-01-25T09:04:40Z</time>
      </trkpt>
      <trkpt lat="43.91482" lon="5.16143">
        <ele>309.68</ele>
        <time>2021-01-25T09:04:53Z</time>
      </trkpt>
      <trkpt lat="43.91502" lon="5.16138">
        <ele>310.64</ele>
        <time>2021-01-25T09:05:13Z</time>
      </trkpt>
      <trkpt lat="43.91505" lon="5.16137">
        <ele>310.64</ele>
        <time>2021-01-25T09:05:15Z</time>
      </trkpt>
      <trkpt lat="43.91515" lon="5.16142">
        <ele>311.6</ele>
        <time>2021-01-25T09:05:24Z</time>
      </trkpt>
      <trkpt lat="43.91529" lon="5.16143">
        <ele>312.57</ele>
        <time>2021-01-25T09:05:39Z</time>
      </trkpt>
      <trkpt lat="43.91545" lon="5.16143">
        <ele>313.53</ele>
        <time>2021-01-25T09:05:57Z</time>
      </trkpt>
      <trkpt lat="43.91559" lon="5.16139">
        <ele>314.49</ele>
        <time>2021-01-25T09:06:08Z</time>
      </trkpt>
      <trkpt lat="43.91566" lon="5.16132">
        <ele>314.97</ele>
        <time>2021-01-25T09:06:13Z</time>
      </trkpt>
      <trkpt lat="43.91578" lon="5.16115">
        <ele>316.89</ele>
        <time>2021-01-25T09:06:29Z</time>
      </trkpt>
      <trkpt lat="43.9159" lon="5.16095">
        <ele>318.33</ele>
        <time>2021-01-25T09:06:50Z</time>
      </trkpt>
      <trkpt lat="43.91592" lon="5.16093">
        <ele>318.33</ele>
        <time>2021-01-25T09:06:52Z</time>
      </trkpt>
      <trkpt lat="43.916" lon="5.16084">
        <ele>319.3</ele>
        <time>2021-01-25T09:07:06Z</time>
      </trkpt>
      <trkpt lat="43.91617" lon="5.16065">
        <ele>320.74</ele>
        <time>2021-01-25T09:07:26Z</time>
      </trkpt>
      <trkpt lat="43.91635" lon="5.16054">
        <ele>321.7</ele>
        <time>2021-01-25T09:07:43Z</time>
      </trkpt>
      <trkpt lat="43.91644" lon="5.1605">
        <ele>322.18</ele>
        <time>2021-01-25T09:07:53Z</time>
      </trkpt>
      <trkpt lat="43.91658" lon="5.1605">
        <ele>323.62</ele>
        <time>2021-01-25T09:08:11Z</time>
      </trkpt>
      <trkpt lat="43.91669" lon="5.16047">
        <ele>324.58</ele>
        <time>2021-01-25T09:08:24Z</time>
      </trkpt>
      <trkpt lat="43.91676" lon="5.16047">
        <ele>325.06</ele>
        <time>2021-01-25T09:08:32Z</time>
      </trkpt>
      <trkpt lat="43.91689" lon="5.16052">
        <ele>326.02</ele>
        <time>2021-01-25T09:08:45Z</time>
      </trkpt>
      <trkpt lat="43.91703" lon="5.16059">
        <ele>327.47</ele>
        <time>2021-01-25T09:08:59Z</time>
      </trkpt>
      <trkpt lat="43.91714" lon="5.16063">
        <ele>328.43</ele>
        <time>2021-01-25T09:09:11Z</time>
      </trkpt>
      <trkpt lat="43.91725" lon="5.16072">
        <ele>329.39</ele>
        <time>2021-01-25T09:09:23Z</time>
      </trkpt>
      <trkpt lat="43.91734" lon="5.16076">
        <ele>330.35</ele>
        <time>2021-01-25T09:09:36Z</time>
      </trkpt>
      <trkpt lat="43.91743" lon="5.16081">
        <ele>331.31</ele>
        <time>2021-01-25T09:09:46Z</time>
      </trkpt>
      <trkpt lat="43.91748" lon="5.16087">
        <ele>331.79</ele>
        <time>2021-01-25T09:09:54Z</time>
      </trkpt>
      <trkpt lat="43.91754" lon="5.16089">
        <ele>332.27</ele>
        <time>2021-01-25T09:10:00Z</time>
      </trkpt>
      <trkpt lat="43.91768" lon="5.16096">
        <ele>333.71</ele>
        <time>2021-01-25T09:10:13Z</time>
      </trkpt>
      <trkpt lat="43.91783" lon="5.16113">
        <ele>334.68</ele>
        <time>2021-01-25T09:10:34Z</time>
      </trkpt>
      <trkpt lat="43.91796" lon="5.16126">
        <ele>336.12</ele>
        <time>2021-01-25T09:10:48Z</time>
      </trkpt>
      <trkpt lat="43.91803" lon="5.16136">
        <ele>337.08</ele>
        <time>2021-01-25T09:10:58Z</time>
      </trkpt>
      <trkpt lat="43.9181" lon="5.16139">
        <ele>338.04</ele>
        <time>2021-01-25T09:11:11Z</time>
      </trkpt>
      <trkpt lat="43.91826" lon="5.16134">
        <ele>339.48</ele>
        <time>2021-01-25T09:11:25Z</time>
      </trkpt>
      <trkpt lat="43.91846" lon="5.16126">
        <ele>340.92</ele>
        <time>2021-01-25T09:11:47Z</time>
      </trkpt>
      <trkpt lat="43.91861" lon="5.16128">
        <ele>342.37</ele>
        <time>2021-01-25T09:12:04Z</time>
      </trkpt>
      <trkpt lat="43.91873" lon="5.1613">
        <ele>344.77</ele>
        <time>2021-01-25T09:12:23Z</time>
      </trkpt>
      <trkpt lat="43.91884" lon="5.16142">
        <ele>346.21</ele>
        <time>2021-01-25T09:12:40Z</time>
      </trkpt>
      <trkpt lat="43.91889" lon="5.16157">
        <ele>347.17</ele>
        <time>2021-01-25T09:12:54Z</time>
      </trkpt>
      <trkpt lat="43.91888" lon="5.1618">
        <ele>349.58</ele>
        <time>2021-01-25T09:13:10Z</time>
      </trkpt>
      <trkpt lat="43.91887" lon="5.16193">
        <ele>350.54</ele>
        <time>2021-01-25T09:13:26Z</time>
      </trkpt>
      <trkpt lat="43.91885" lon="5.16198">
        <ele>351.02</ele>
        <time>2021-01-25T09:13:43Z</time>
      </trkpt>
      <trkpt lat="43.91884" lon="5.16203">
        <ele>351.02</ele>
        <time>2021-01-25T09:13:46Z</time>
      </trkpt>
      <trkpt lat="43.91885" lon="5.16227">
        <ele>351.98</ele>
        <time>2021-01-25T09:14:03Z</time>
      </trkpt>
      <trkpt lat="43.91894" lon="5.16249">
        <ele>353.42</ele>
        <time>2021-01-25T09:14:20Z</time>
      </trkpt>
      <trkpt lat="43.91898" lon="5.16265">
        <ele>354.86</ele>
        <time>2021-01-25T09:14:33Z</time>
      </trkpt>
      <trkpt lat="43.91897" lon="5.16285">
        <ele>355.83</ele>
        <time>2021-01-25T09:14:50Z</time>
      </trkpt>
      <trkpt lat="43.91894" lon="5.16309">
        <ele>356.79</ele>
        <time>2021-01-25T09:15:09Z</time>
      </trkpt>
      <trkpt lat="43.91895" lon="5.16331">
        <ele>357.75</ele>
        <time>2021-01-25T09:15:23Z</time>
      </trkpt>
      <trkpt lat="43.91902" lon="5.16352">
        <ele>359.19</ele>
        <time>2021-01-25T09:15:39Z</time>
      </trkpt>
      <trkpt lat="43.9191" lon="5.16369">
        <ele>359.67</ele>
        <time>2021-01-25T09:15:55Z</time>
      </trkpt>
      <trkpt lat="43.91926" lon="5.1639">
        <ele>360.63</ele>
        <time>2021-01-25T09:16:16Z</time>
      </trkpt>
      <trkpt lat="43.91938" lon="5.16412">
        <ele>362.07</ele>
        <time>2021-01-25T09:16:36Z</time>
      </trkpt>
      <trkpt lat="43.91939" lon="5.16414">
        <ele>362.07</ele>
        <time>2021-01-25T09:16:38Z</time>
      </trkpt>
      <trkpt lat="43.91949" lon="5.16431">
        <ele>364</ele>
        <time>2021-01-25T09:16:55Z</time>
      </trkpt>
      <trkpt lat="43.91955" lon="5.16441">
        <ele>364.96</ele>
        <time>2021-01-25T09:17:05Z</time>
      </trkpt>
      <trkpt lat="43.91966" lon="5.16445">
        <ele>366.88</ele>
        <time>2021-01-25T09:17:19Z</time>
      </trkpt>
      <trkpt lat="43.91983" lon="5.16448">
        <ele>368.32</ele>
        <time>2021-01-25T09:17:38Z</time>
      </trkpt>
      <trkpt lat="43.91995" lon="5.16456">
        <ele>371.21</ele>
        <time>2021-01-25T09:17:54Z</time>
      </trkpt>
      <trkpt lat="43.91996" lon="5.16456">
        <ele>371.69</ele>
        <time>2021-01-25T09:18:18Z</time>
      </trkpt>
      <trkpt lat="43.91996" lon="5.16453">
        <ele>371.69</ele>
        <time>2021-01-25T09:18:50Z</time>
      </trkpt>
      <trkpt lat="43.91996" lon="5.16455">
        <ele>371.69</ele>
        <time>2021-01-25T09:19:17Z</time>
      </trkpt>
      <trkpt lat="43.91986" lon="5.1646">
        <ele>371.69</ele>
        <time>2021-01-25T09:19:36Z</time>
      </trkpt>
      <trkpt lat="43.91982" lon="5.16461">
        <ele>371.21</ele>
        <time>2021-01-25T09:19:39Z</time>
      </trkpt>
      <trkpt lat="43.91975" lon="5.16465">
        <ele>371.21</ele>
        <time>2021-01-25T09:19:48Z</time>
      </trkpt>
      <trkpt lat="43.91964" lon="5.16476">
        <ele>374.57</ele>
        <time>2021-01-25T09:20:02Z</time>
      </trkpt>
      <trkpt lat="43.91956" lon="5.16481">
        <ele>377.45</ele>
        <time>2021-01-25T09:20:14Z</time>
      </trkpt>
      <trkpt lat="43.91945" lon="5.16485">
        <ele>379.86</ele>
        <time>2021-01-25T09:20:30Z</time>
      </trkpt>
      <trkpt lat="43.91933" lon="5.16491">
        <ele>383.22</ele>
        <time>2021-01-25T09:20:51Z</time>
      </trkpt>
      <trkpt lat="43.91925" lon="5.16495">
        <ele>386.11</ele>
        <time>2021-01-25T09:21:04Z</time>
      </trkpt>
      <trkpt lat="43.91916" lon="5.16496">
        <ele>388.99</ele>
        <time>2021-01-25T09:21:19Z</time>
      </trkpt>
      <trkpt lat="43.91912" lon="5.16493">
        <ele>392.36</ele>
        <time>2021-01-25T09:21:34Z</time>
      </trkpt>
      <trkpt lat="43.91901" lon="5.16494">
        <ele>394.76</ele>
        <time>2021-01-25T09:21:48Z</time>
      </trkpt>
      <trkpt lat="43.91892" lon="5.16493">
        <ele>397.64</ele>
        <time>2021-01-25T09:21:59Z</time>
      </trkpt>
      <trkpt lat="43.91884" lon="5.16496">
        <ele>401.01</ele>
        <time>2021-01-25T09:22:12Z</time>
      </trkpt>
      <trkpt lat="43.91874" lon="5.16498">
        <ele>403.89</ele>
        <time>2021-01-25T09:22:27Z</time>
      </trkpt>
      <trkpt lat="43.91863" lon="5.16495">
        <ele>406.77</ele>
        <time>2021-01-25T09:22:40Z</time>
      </trkpt>
      <trkpt lat="43.91848" lon="5.1649">
        <ele>408.7</ele>
        <time>2021-01-25T09:23:04Z</time>
      </trkpt>
      <trkpt lat="43.91835" lon="5.16489">
        <ele>406.77</ele>
        <time>2021-01-25T09:23:23Z</time>
      </trkpt>
      <trkpt lat="43.91826" lon="5.16484">
        <ele>405.81</ele>
        <time>2021-01-25T09:23:42Z</time>
      </trkpt>
      <trkpt lat="43.91827" lon="5.16485">
        <ele>405.81</ele>
        <time>2021-01-25T09:24:03Z</time>
      </trkpt>
      <trkpt lat="43.91829" lon="5.16485">
        <ele>405.81</ele>
        <time>2021-01-25T09:24:27Z</time>
      </trkpt>
      <trkpt lat="43.91829" lon="5.16485">
        <ele>405.81</ele>
        <time>2021-01-25T09:24:55Z</time>
      </trkpt>
      <trkpt lat="43.91826" lon="5.16482">
        <ele>404.85</ele>
        <time>2021-01-25T09:25:25Z</time>
      </trkpt>
      <trkpt lat="43.91826" lon="5.16482">
        <ele>404.85</ele>
        <time>2021-01-25T09:25:59Z</time>
      </trkpt>
      <trkpt lat="43.91826" lon="5.16483">
        <ele>404.85</ele>
        <time>2021-01-25T09:26:34Z</time>
      </trkpt>
      <trkpt lat="43.91827" lon="5.16482">
        <ele>404.85</ele>
        <time>2021-01-25T09:27:04Z</time>
      </trkpt>
      <trkpt lat="43.91827" lon="5.1648">
        <ele>404.85</ele>
        <time>2021-01-25T09:27:34Z</time>
      </trkpt>
      <trkpt lat="43.91831" lon="5.16481">
        <ele>404.85</ele>
        <time>2021-01-25T09:28:08Z</time>
      </trkpt>
      <trkpt lat="43.91828" lon="5.16481">
        <ele>404.85</ele>
        <time>2021-01-25T09:28:41Z</time>
      </trkpt>
      <trkpt lat="43.91826" lon="5.1648">
        <ele>404.85</ele>
        <time>2021-01-25T09:29:17Z</time>
      </trkpt>
      <trkpt lat="43.91821" lon="5.16483">
        <ele>404.85</ele>
        <time>2021-01-25T09:29:48Z</time>
      </trkpt>
      <trkpt lat="43.91824" lon="5.16481">
        <ele>404.85</ele>
        <time>2021-01-25T09:30:20Z</time>
      </trkpt>
      <trkpt lat="43.91826" lon="5.16486">
        <ele>404.85</ele>
        <time>2021-01-25T09:30:55Z</time>
      </trkpt>
      <trkpt lat="43.91827" lon="5.16486">
        <ele>404.85</ele>
        <time>2021-01-25T09:31:37Z</time>
      </trkpt>
      <trkpt lat="43.91826" lon="5.16484">
        <ele>404.85</ele>
        <time>2021-01-25T09:32:11Z</time>
      </trkpt>
      <trkpt lat="43.91825" lon="5.16486">
        <ele>404.85</ele>
        <time>2021-01-25T09:32:45Z</time>
      </trkpt>
      <trkpt lat="43.91828" lon="5.16479">
        <ele>404.85</ele>
        <time>2021-01-25T09:33:20Z</time>
      </trkpt>
      <trkpt lat="43.91826" lon="5.16482">
        <ele>404.85</ele>
        <time>2021-01-25T09:33:58Z</time>
      </trkpt>
      <trkpt lat="43.91826" lon="5.16483">
        <ele>404.85</ele>
        <time>2021-01-25T09:34:29Z</time>
      </trkpt>
      <trkpt lat="43.91824" lon="5.16482">
        <ele>404.85</ele>
        <time>2021-01-25T09:34:58Z</time>
      </trkpt>
      <trkpt lat="43.91824" lon="5.16482">
        <ele>404.85</ele>
        <time>2021-01-25T09:35:32Z</time>
      </trkpt>
      <trkpt lat="43.91823" lon="5.16483">
        <ele>404.85</ele>
        <time>2021-01-25T09:36:04Z</time>
      </trkpt>
      <trkpt lat="43.91824" lon="5.16483">
        <ele>404.85</ele>
        <time>2021-01-25T09:36:38Z</time>
      </trkpt>
      <trkpt lat="43.91829" lon="5.16484">
        <ele>404.85</ele>
        <time>2021-01-25T09:37:07Z</time>
      </trkpt>
      <trkpt lat="43.91826" lon="5.16486">
        <ele>404.85</ele>
        <time>2021-01-25T09:37:30Z</time>
      </trkpt>
      <trkpt lat="43.91824" lon="5.16488">
        <ele>404.85</ele>
        <time>2021-01-25T09:37:56Z</time>
      </trkpt>
      <trkpt lat="43.91826" lon="5.16488">
        <ele>404.85</ele>
        <time>2021-01-25T09:38:17Z</time>
      </trkpt>
      <trkpt lat="43.91825" lon="5.16488">
        <ele>404.85</ele>
        <time>2021-01-25T09:38:28Z</time>
      </trkpt>
      <trkpt lat="43.91807" lon="5.16487">
        <ele>403.89</ele>
        <time>2021-01-25T09:38:45Z</time>
      </trkpt>
      <trkpt lat="43.91792" lon="5.1649">
        <ele>401.49</ele>
        <time>2021-01-25T09:39:00Z</time>
      </trkpt>
      <trkpt lat="43.91776" lon="5.16492">
        <ele>398.12</ele>
        <time>2021-01-25T09:39:15Z</time>
      </trkpt>
      <trkpt lat="43.91761" lon="5.16492">
        <ele>395.24</ele>
        <time>2021-01-25T09:39:30Z</time>
      </trkpt>
      <trkpt lat="43.91745" lon="5.1649">
        <ele>392.36</ele>
        <time>2021-01-25T09:39:47Z</time>
      </trkpt>
      <trkpt lat="43.9173" lon="5.16492">
        <ele>388.99</ele>
        <time>2021-01-25T09:40:10Z</time>
      </trkpt>
      <trkpt lat="43.91712" lon="5.16492">
        <ele>386.11</ele>
        <time>2021-01-25T09:40:27Z</time>
      </trkpt>
      <trkpt lat="43.91699" lon="5.16502">
        <ele>383.22</ele>
        <time>2021-01-25T09:40:45Z</time>
      </trkpt>
      <trkpt lat="43.91687" lon="5.16516">
        <ele>379.86</ele>
        <time>2021-01-25T09:41:05Z</time>
      </trkpt>
      <trkpt lat="43.91674" lon="5.1652">
        <ele>376.97</ele>
        <time>2021-01-25T09:41:24Z</time>
      </trkpt>
      <trkpt lat="43.91659" lon="5.16524">
        <ele>373.61</ele>
        <time>2021-01-25T09:41:42Z</time>
      </trkpt>
      <trkpt lat="43.91655" lon="5.16528">
        <ele>373.61</ele>
        <time>2021-01-25T09:41:45Z</time>
      </trkpt>
      <trkpt lat="43.91638" lon="5.16533">
        <ele>371.69</ele>
        <time>2021-01-25T09:42:07Z</time>
      </trkpt>
      <trkpt lat="43.91638" lon="5.16536">
        <ele>370.73</ele>
        <time>2021-01-25T09:42:30Z</time>
      </trkpt>
      <trkpt lat="43.91639" lon="5.16538">
        <ele>371.21</ele>
        <time>2021-01-25T09:42:52Z</time>
      </trkpt>
      <trkpt lat="43.91638" lon="5.1654">
        <ele>371.21</ele>
        <time>2021-01-25T09:43:13Z</time>
      </trkpt>
      <trkpt lat="43.91634" lon="5.16538">
        <ele>370.73</ele>
        <time>2021-01-25T09:43:21Z</time>
      </trkpt>
      <trkpt lat="43.91626" lon="5.1654">
        <ele>369.76</ele>
        <time>2021-01-25T09:43:27Z</time>
      </trkpt>
      <trkpt lat="43.91609" lon="5.16544">
        <ele>367.36</ele>
        <time>2021-01-25T09:43:42Z</time>
      </trkpt>
      <trkpt lat="43.91592" lon="5.16542">
        <ele>365.44</ele>
        <time>2021-01-25T09:43:57Z</time>
      </trkpt>
      <trkpt lat="43.91571" lon="5.16541">
        <ele>363.04</ele>
        <time>2021-01-25T09:44:17Z</time>
      </trkpt>
      <trkpt lat="43.91546" lon="5.16534">
        <ele>360.63</ele>
        <time>2021-01-25T09:44:38Z</time>
      </trkpt>
      <trkpt lat="43.91539" lon="5.16532">
        <ele>360.15</ele>
        <time>2021-01-25T09:44:51Z</time>
      </trkpt>
      <trkpt lat="43.91531" lon="5.16534">
        <ele>359.67</ele>
        <time>2021-01-25T09:44:57Z</time>
      </trkpt>
      <trkpt lat="43.91519" lon="5.16537">
        <ele>359.67</ele>
        <time>2021-01-25T09:45:03Z</time>
      </trkpt>
      <trkpt lat="43.91504" lon="5.16548">
        <ele>357.75</ele>
        <time>2021-01-25T09:45:21Z</time>
      </trkpt>
      <trkpt lat="43.91498" lon="5.16548">
        <ele>356.79</ele>
        <time>2021-01-25T09:45:27Z</time>
      </trkpt>
      <trkpt lat="43.91483" lon="5.16543">
        <ele>355.34</ele>
        <time>2021-01-25T09:45:42Z</time>
      </trkpt>
      <trkpt lat="43.91477" lon="5.16541">
        <ele>354.86</ele>
        <time>2021-01-25T09:45:47Z</time>
      </trkpt>
      <trkpt lat="43.91463" lon="5.16535">
        <ele>353.42</ele>
        <time>2021-01-25T09:45:58Z</time>
      </trkpt>
      <trkpt lat="43.91461" lon="5.16535">
        <ele>353.42</ele>
        <time>2021-01-25T09:46:00Z</time>
      </trkpt>
      <trkpt lat="43.91446" lon="5.16533">
        <ele>351.98</ele>
        <time>2021-01-25T09:46:16Z</time>
      </trkpt>
      <trkpt lat="43.91424" lon="5.16525">
        <ele>349.58</ele>
        <time>2021-01-25T09:46:36Z</time>
      </trkpt>
      <trkpt lat="43.91417" lon="5.16523">
        <ele>349.1</ele>
        <time>2021-01-25T09:46:42Z</time>
      </trkpt>
      <trkpt lat="43.91405" lon="5.16521">
        <ele>348.13</ele>
        <time>2021-01-25T09:46:53Z</time>
      </trkpt>
      <trkpt lat="43.91396" lon="5.16522">
        <ele>346.69</ele>
        <time>2021-01-25T09:47:03Z</time>
      </trkpt>
      <trkpt lat="43.91377" lon="5.16519">
        <ele>344.77</ele>
        <time>2021-01-25T09:47:18Z</time>
      </trkpt>
      <trkpt lat="43.9136" lon="5.16511">
        <ele>342.37</ele>
        <time>2021-01-25T09:47:34Z</time>
      </trkpt>
      <trkpt lat="43.91342" lon="5.16504">
        <ele>339.48</ele>
        <time>2021-01-25T09:47:53Z</time>
      </trkpt>
      <trkpt lat="43.91316" lon="5.16496">
        <ele>336.6</ele>
        <time>2021-01-25T09:48:16Z</time>
      </trkpt>
      <trkpt lat="43.91301" lon="5.16491">
        <ele>333.71</ele>
        <time>2021-01-25T09:48:34Z</time>
      </trkpt>
      <trkpt lat="43.91284" lon="5.16481">
        <ele>330.83</ele>
        <time>2021-01-25T09:48:53Z</time>
      </trkpt>
      <trkpt lat="43.91275" lon="5.16475">
        <ele>329.39</ele>
        <time>2021-01-25T09:49:02Z</time>
      </trkpt>
      <trkpt lat="43.9126" lon="5.16472">
        <ele>326.02</ele>
        <time>2021-01-25T09:49:18Z</time>
      </trkpt>
      <trkpt lat="43.91256" lon="5.16471">
        <ele>325.54</ele>
        <time>2021-01-25T09:49:22Z</time>
      </trkpt>
      <trkpt lat="43.91246" lon="5.1647">
        <ele>324.58</ele>
        <time>2021-01-25T09:49:28Z</time>
      </trkpt>
      <trkpt lat="43.91231" lon="5.16472">
        <ele>322.18</ele>
        <time>2021-01-25T09:49:40Z</time>
      </trkpt>
      <trkpt lat="43.91227" lon="5.16472">
        <ele>321.7</ele>
        <time>2021-01-25T09:49:44Z</time>
      </trkpt>
      <trkpt lat="43.91207" lon="5.1647">
        <ele>319.78</ele>
        <time>2021-01-25T09:50:04Z</time>
      </trkpt>
      <trkpt lat="43.91196" lon="5.16464">
        <ele>318.33</ele>
        <time>2021-01-25T09:50:14Z</time>
      </trkpt>
      <trkpt lat="43.91179" lon="5.16452">
        <ele>317.37</ele>
        <time>2021-01-25T09:50:28Z</time>
      </trkpt>
      <trkpt lat="43.91165" lon="5.16436">
        <ele>314.49</ele>
        <time>2021-01-25T09:50:47Z</time>
      </trkpt>
      <trkpt lat="43.91155" lon="5.16429">
        <ele>313.53</ele>
        <time>2021-01-25T09:50:59Z</time>
      </trkpt>
      <trkpt lat="43.91146" lon="5.16423">
        <ele>312.57</ele>
        <time>2021-01-25T09:51:07Z</time>
      </trkpt>
      <trkpt lat="43.91121" lon="5.16415">
        <ele>310.16</ele>
        <time>2021-01-25T09:51:28Z</time>
      </trkpt>
      <trkpt lat="43.91111" lon="5.16412">
        <ele>309.68</ele>
        <time>2021-01-25T09:51:37Z</time>
      </trkpt>
      <trkpt lat="43.91097" lon="5.1641">
        <ele>307.28</ele>
        <time>2021-01-25T09:51:53Z</time>
      </trkpt>
      <trkpt lat="43.91091" lon="5.16409">
        <ele>306.8</ele>
        <time>2021-01-25T09:51:58Z</time>
      </trkpt>
      <trkpt lat="43.91075" lon="5.16402">
        <ele>304.88</ele>
        <time>2021-01-25T09:52:12Z</time>
      </trkpt>
      <trkpt lat="43.91062" lon="5.16403">
        <ele>304.39</ele>
        <time>2021-01-25T09:52:22Z</time>
      </trkpt>
      <trkpt lat="43.91044" lon="5.16405">
        <ele>301.99</ele>
        <time>2021-01-25T09:52:38Z</time>
      </trkpt>
      <trkpt lat="43.91027" lon="5.1641">
        <ele>300.55</ele>
        <time>2021-01-25T09:52:52Z</time>
      </trkpt>
      <trkpt lat="43.91025" lon="5.16413">
        <ele>300.55</ele>
        <time>2021-01-25T09:52:55Z</time>
      </trkpt>
      <trkpt lat="43.91004" lon="5.16428">
        <ele>297.18</ele>
        <time>2021-01-25T09:53:14Z</time>
      </trkpt>
      <trkpt lat="43.90991" lon="5.16432">
        <ele>296.22</ele>
        <time>2021-01-25T09:53:25Z</time>
      </trkpt>
      <trkpt lat="43.90974" lon="5.1644">
        <ele>294.78</ele>
        <time>2021-01-25T09:53:42Z</time>
      </trkpt>
      <trkpt lat="43.9096" lon="5.16446">
        <ele>293.82</ele>
        <time>2021-01-25T09:53:54Z</time>
      </trkpt>
      <trkpt lat="43.90941" lon="5.16459">
        <ele>290.94</ele>
        <time>2021-01-25T09:54:14Z</time>
      </trkpt>
      <trkpt lat="43.90932" lon="5.16467">
        <ele>289.01</ele>
        <time>2021-01-25T09:54:27Z</time>
      </trkpt>
      <trkpt lat="43.90929" lon="5.16471">
        <ele>289.01</ele>
        <time>2021-01-25T09:54:30Z</time>
      </trkpt>
      <trkpt lat="43.9092" lon="5.16493">
        <ele>287.09</ele>
        <time>2021-01-25T09:54:44Z</time>
      </trkpt>
      <trkpt lat="43.90917" lon="5.16508">
        <ele>286.13</ele>
        <time>2021-01-25T09:55:00Z</time>
      </trkpt>
      <trkpt lat="43.90919" lon="5.16541">
        <ele>285.17</ele>
        <time>2021-01-25T09:55:22Z</time>
      </trkpt>
      <trkpt lat="43.90922" lon="5.16565">
        <ele>286.13</ele>
        <time>2021-01-25T09:55:43Z</time>
      </trkpt>
      <trkpt lat="43.90929" lon="5.16578">
        <ele>286.61</ele>
        <time>2021-01-25T09:56:00Z</time>
      </trkpt>
      <trkpt lat="43.90933" lon="5.16588">
        <ele>286.61</ele>
        <time>2021-01-25T09:56:17Z</time>
      </trkpt>
      <trkpt lat="43.90934" lon="5.16589">
        <ele>286.61</ele>
        <time>2021-01-25T09:56:20Z</time>
      </trkpt>
      <trkpt lat="43.90934" lon="5.16589">
        <ele>286.61</ele>
        <time>2021-01-25T09:56:59Z</time>
      </trkpt>
      <trkpt lat="43.90926" lon="5.16582">
        <ele>287.09</ele>
        <time>2021-01-25T09:57:13Z</time>
      </trkpt>
      <trkpt lat="43.90929" lon="5.16585">
        <ele>287.09</ele>
        <time>2021-01-25T09:57:16Z</time>
      </trkpt>
      <trkpt lat="43.9093" lon="5.16587">
        <ele>287.09</ele>
        <time>2021-01-25T09:57:38Z</time>
      </trkpt>
      <trkpt lat="43.90928" lon="5.16588">
        <ele>287.09</ele>
        <time>2021-01-25T09:58:25Z</time>
      </trkpt>
      <trkpt lat="43.90929" lon="5.1659">
        <ele>287.09</ele>
        <time>2021-01-25T09:58:55Z</time>
      </trkpt>
      <trkpt lat="43.90925" lon="5.1659">
        <ele>287.09</ele>
        <time>2021-01-25T09:59:20Z</time>
      </trkpt>
      <trkpt lat="43.90925" lon="5.16587">
        <ele>287.09</ele>
        <time>2021-01-25T09:59:43Z</time>
      </trkpt>
      <trkpt lat="43.9093" lon="5.16589">
        <ele>287.09</ele>
        <time>2021-01-25T10:00:21Z</time>
      </trkpt>
      <trkpt lat="43.90928" lon="5.16576">
        <ele>287.09</ele>
        <time>2021-01-25T10:00:46Z</time>
      </trkpt>
      <trkpt lat="43.90926" lon="5.16554">
        <ele>285.65</ele>
        <time>2021-01-25T10:01:03Z</time>
      </trkpt>
      <trkpt lat="43.90922" lon="5.16528">
        <ele>285.65</ele>
        <time>2021-01-25T10:01:20Z</time>
      </trkpt>
      <trkpt lat="43.9092" lon="5.16517">
        <ele>285.17</ele>
        <time>2021-01-25T10:01:27Z</time>
      </trkpt>
      <trkpt lat="43.90906" lon="5.16509">
        <ele>284.21</ele>
        <time>2021-01-25T10:01:47Z</time>
      </trkpt>
      <trkpt lat="43.90899" lon="5.16513">
        <ele>284.21</ele>
        <time>2021-01-25T10:01:55Z</time>
      </trkpt>
      <trkpt lat="43.90887" lon="5.16521">
        <ele>282.28</ele>
        <time>2021-01-25T10:02:07Z</time>
      </trkpt>
      <trkpt lat="43.90871" lon="5.16527">
        <ele>279.88</ele>
        <time>2021-01-25T10:02:24Z</time>
      </trkpt>
      <trkpt lat="43.90858" lon="5.16534">
        <ele>277.48</ele>
        <time>2021-01-25T10:02:43Z</time>
      </trkpt>
      <trkpt lat="43.90843" lon="5.16545">
        <ele>276.04</ele>
        <time>2021-01-25T10:02:57Z</time>
      </trkpt>
      <trkpt lat="43.90847" lon="5.16558">
        <ele>275.56</ele>
        <time>2021-01-25T10:03:09Z</time>
      </trkpt>
      <trkpt lat="43.90864" lon="5.16574">
        <ele>276.52</ele>
        <time>2021-01-25T10:03:29Z</time>
      </trkpt>
      <trkpt lat="43.90881" lon="5.16587">
        <ele>278.44</ele>
        <time>2021-01-25T10:03:49Z</time>
      </trkpt>
      <trkpt lat="43.90891" lon="5.16609">
        <ele>279.4</ele>
        <time>2021-01-25T10:04:08Z</time>
      </trkpt>
      <trkpt lat="43.90894" lon="5.16622">
        <ele>279.4</ele>
        <time>2021-01-25T10:04:18Z</time>
      </trkpt>
      <trkpt lat="43.90904" lon="5.16645">
        <ele>279.4</ele>
        <time>2021-01-25T10:04:34Z</time>
      </trkpt>
      <trkpt lat="43.90909" lon="5.16666">
        <ele>278.44</ele>
        <time>2021-01-25T10:04:49Z</time>
      </trkpt>
      <trkpt lat="43.90904" lon="5.16676">
        <ele>277.96</ele>
        <time>2021-01-25T10:05:07Z</time>
      </trkpt>
      <trkpt lat="43.90895" lon="5.16668">
        <ele>277</ele>
        <time>2021-01-25T10:05:26Z</time>
      </trkpt>
      <trkpt lat="43.90881" lon="5.16675">
        <ele>275.07</ele>
        <time>2021-01-25T10:05:44Z</time>
      </trkpt>
      <trkpt lat="43.90871" lon="5.16679">
        <ele>272.67</ele>
        <time>2021-01-25T10:06:00Z</time>
      </trkpt>
      <trkpt lat="43.90865" lon="5.16673">
        <ele>272.19</ele>
        <time>2021-01-25T10:06:20Z</time>
      </trkpt>
      <trkpt lat="43.90874" lon="5.16664">
        <ele>273.63</ele>
        <time>2021-01-25T10:06:36Z</time>
      </trkpt>
      <trkpt lat="43.90877" lon="5.16667">
        <ele>274.59</ele>
        <time>2021-01-25T10:06:56Z</time>
      </trkpt>
      <trkpt lat="43.90881" lon="5.16678">
        <ele>274.59</ele>
        <time>2021-01-25T10:07:15Z</time>
      </trkpt>
      <trkpt lat="43.90882" lon="5.16677">
        <ele>274.11</ele>
        <time>2021-01-25T10:07:37Z</time>
      </trkpt>
      <trkpt lat="43.90879" lon="5.16676">
        <ele>273.63</ele>
        <time>2021-01-25T10:08:13Z</time>
      </trkpt>
      <trkpt lat="43.90879" lon="5.16677">
        <ele>273.63</ele>
        <time>2021-01-25T10:08:56Z</time>
      </trkpt>
      <trkpt lat="43.90879" lon="5.16676">
        <ele>274.11</ele>
        <time>2021-01-25T10:09:16Z</time>
      </trkpt>
      <trkpt lat="43.90887" lon="5.16676">
        <ele>274.59</ele>
        <time>2021-01-25T10:09:42Z</time>
      </trkpt>
      <trkpt lat="43.90903" lon="5.16678">
        <ele>276.52</ele>
        <time>2021-01-25T10:10:02Z</time>
      </trkpt>
      <trkpt lat="43.90914" lon="5.16685">
        <ele>277.48</ele>
        <time>2021-01-25T10:10:22Z</time>
      </trkpt>
      <trkpt lat="43.90918" lon="5.16693">
        <ele>277.96</ele>
        <time>2021-01-25T10:10:44Z</time>
      </trkpt>
      <trkpt lat="43.9092" lon="5.16697">
        <ele>277.96</ele>
        <time>2021-01-25T10:10:48Z</time>
      </trkpt>
      <trkpt lat="43.90931" lon="5.1672">
        <ele>278.92</ele>
        <time>2021-01-25T10:11:08Z</time>
      </trkpt>
      <trkpt lat="43.90937" lon="5.16737">
        <ele>279.4</ele>
        <time>2021-01-25T10:11:21Z</time>
      </trkpt>
      <trkpt lat="43.90951" lon="5.16762">
        <ele>280.36</ele>
        <time>2021-01-25T10:11:41Z</time>
      </trkpt>
      <trkpt lat="43.9096" lon="5.1678">
        <ele>281.8</ele>
        <time>2021-01-25T10:11:57Z</time>
      </trkpt>
      <trkpt lat="43.90968" lon="5.16798">
        <ele>282.77</ele>
        <time>2021-01-25T10:12:16Z</time>
      </trkpt>
      <trkpt lat="43.90977" lon="5.16813">
        <ele>283.73</ele>
        <time>2021-01-25T10:12:33Z</time>
      </trkpt>
      <trkpt lat="43.9099" lon="5.16814">
        <ele>286.61</ele>
        <time>2021-01-25T10:12:46Z</time>
      </trkpt>
      <trkpt lat="43.91009" lon="5.16824">
        <ele>289.97</ele>
        <time>2021-01-25T10:13:08Z</time>
      </trkpt>
      <trkpt lat="43.91014" lon="5.16842">
        <ele>291.42</ele>
        <time>2021-01-25T10:13:21Z</time>
      </trkpt>
      <trkpt lat="43.91016" lon="5.16864">
        <ele>291.42</ele>
        <time>2021-01-25T10:13:39Z</time>
      </trkpt>
      <trkpt lat="43.91014" lon="5.16888">
        <ele>293.82</ele>
        <time>2021-01-25T10:13:56Z</time>
      </trkpt>
      <trkpt lat="43.91011" lon="5.16912">
        <ele>296.22</ele>
        <time>2021-01-25T10:14:13Z</time>
      </trkpt>
      <trkpt lat="43.91011" lon="5.16932">
        <ele>298.63</ele>
        <time>2021-01-25T10:14:33Z</time>
      </trkpt>
      <trkpt lat="43.91013" lon="5.16954">
        <ele>301.51</ele>
        <time>2021-01-25T10:14:55Z</time>
      </trkpt>
      <trkpt lat="43.91017" lon="5.16981">
        <ele>303.91</ele>
        <time>2021-01-25T10:15:15Z</time>
      </trkpt>
      <trkpt lat="43.9102" lon="5.17005">
        <ele>305.36</ele>
        <time>2021-01-25T10:15:37Z</time>
      </trkpt>
      <trkpt lat="43.91022" lon="5.17011">
        <ele>305.84</ele>
        <time>2021-01-25T10:15:43Z</time>
      </trkpt>
      <trkpt lat="43.91027" lon="5.17023">
        <ele>306.8</ele>
        <time>2021-01-25T10:15:54Z</time>
      </trkpt>
      <trkpt lat="43.91043" lon="5.17041">
        <ele>308.72</ele>
        <time>2021-01-25T10:16:16Z</time>
      </trkpt>
      <trkpt lat="43.91052" lon="5.17057">
        <ele>310.16</ele>
        <time>2021-01-25T10:16:35Z</time>
      </trkpt>
      <trkpt lat="43.91064" lon="5.17076">
        <ele>311.6</ele>
        <time>2021-01-25T10:16:51Z</time>
      </trkpt>
      <trkpt lat="43.91074" lon="5.17093">
        <ele>312.57</ele>
        <time>2021-01-25T10:17:07Z</time>
      </trkpt>
      <trkpt lat="43.91081" lon="5.17109">
        <ele>313.53</ele>
        <time>2021-01-25T10:17:23Z</time>
      </trkpt>
      <trkpt lat="43.91083" lon="5.17135">
        <ele>314.01</ele>
        <time>2021-01-25T10:17:45Z</time>
      </trkpt>
      <trkpt lat="43.91086" lon="5.17143">
        <ele>314.01</ele>
        <time>2021-01-25T10:18:09Z</time>
      </trkpt>
      <trkpt lat="43.91088" lon="5.17144">
        <ele>313.53</ele>
        <time>2021-01-25T10:18:40Z</time>
      </trkpt>
      <trkpt lat="43.91104" lon="5.17142">
        <ele>314.97</ele>
        <time>2021-01-25T10:19:01Z</time>
      </trkpt>
      <trkpt lat="43.91115" lon="5.17132">
        <ele>316.41</ele>
        <time>2021-01-25T10:19:14Z</time>
      </trkpt>
      <trkpt lat="43.91138" lon="5.17112">
        <ele>318.33</ele>
        <time>2021-01-25T10:19:36Z</time>
      </trkpt>
      <trkpt lat="43.91157" lon="5.17096">
        <ele>321.22</ele>
        <time>2021-01-25T10:19:55Z</time>
      </trkpt>
      <trkpt lat="43.9117" lon="5.17078">
        <ele>322.66</ele>
        <time>2021-01-25T10:20:11Z</time>
      </trkpt>
      <trkpt lat="43.91184" lon="5.1706">
        <ele>324.58</ele>
        <time>2021-01-25T10:20:29Z</time>
      </trkpt>
      <trkpt lat="43.91197" lon="5.17045">
        <ele>326.02</ele>
        <time>2021-01-25T10:20:45Z</time>
      </trkpt>
      <trkpt lat="43.91214" lon="5.17028">
        <ele>327.95</ele>
        <time>2021-01-25T10:21:03Z</time>
      </trkpt>
      <trkpt lat="43.91217" lon="5.17024">
        <ele>328.43</ele>
        <time>2021-01-25T10:21:07Z</time>
      </trkpt>
      <trkpt lat="43.9123" lon="5.17007">
        <ele>330.35</ele>
        <time>2021-01-25T10:21:24Z</time>
      </trkpt>
      <trkpt lat="43.91239" lon="5.16993">
        <ele>331.79</ele>
        <time>2021-01-25T10:21:36Z</time>
      </trkpt>
      <trkpt lat="43.91249" lon="5.16977">
        <ele>332.27</ele>
        <time>2021-01-25T10:21:51Z</time>
      </trkpt>
      <trkpt lat="43.91258" lon="5.16963">
        <ele>333.71</ele>
        <time>2021-01-25T10:22:05Z</time>
      </trkpt>
      <trkpt lat="43.91261" lon="5.1696">
        <ele>334.2</ele>
        <time>2021-01-25T10:22:09Z</time>
      </trkpt>
      <trkpt lat="43.91269" lon="5.1697">
        <ele>336.6</ele>
        <time>2021-01-25T10:22:27Z</time>
      </trkpt>
      <trkpt lat="43.9127" lon="5.16987">
        <ele>336.6</ele>
        <time>2021-01-25T10:22:42Z</time>
      </trkpt>
      <trkpt lat="43.91271" lon="5.17019">
        <ele>336.6</ele>
        <time>2021-01-25T10:23:04Z</time>
      </trkpt>
      <trkpt lat="43.91271" lon="5.17021">
        <ele>336.6</ele>
        <time>2021-01-25T10:23:05Z</time>
      </trkpt>
      <trkpt lat="43.9127" lon="5.17046">
        <ele>336.12</ele>
        <time>2021-01-25T10:23:21Z</time>
      </trkpt>
      <trkpt lat="43.91268" lon="5.17082">
        <ele>335.64</ele>
        <time>2021-01-25T10:23:42Z</time>
      </trkpt>
      <trkpt lat="43.91268" lon="5.17108">
        <ele>336.6</ele>
        <time>2021-01-25T10:23:57Z</time>
      </trkpt>
      <trkpt lat="43.91267" lon="5.17132">
        <ele>336.6</ele>
        <time>2021-01-25T10:24:12Z</time>
      </trkpt>
      <trkpt lat="43.91262" lon="5.17159">
        <ele>335.64</ele>
        <time>2021-01-25T10:24:30Z</time>
      </trkpt>
      <trkpt lat="43.9126" lon="5.1718">
        <ele>335.16</ele>
        <time>2021-01-25T10:24:46Z</time>
      </trkpt>
      <trkpt lat="43.91256" lon="5.1722">
        <ele>335.16</ele>
        <time>2021-01-25T10:25:06Z</time>
      </trkpt>
      <trkpt lat="43.91255" lon="5.17242">
        <ele>335.16</ele>
        <time>2021-01-25T10:25:21Z</time>
      </trkpt>
      <trkpt lat="43.91253" lon="5.17264">
        <ele>335.64</ele>
        <time>2021-01-25T10:25:34Z</time>
      </trkpt>
      <trkpt lat="43.91265" lon="5.17281">
        <ele>335.64</ele>
        <time>2021-01-25T10:25:52Z</time>
      </trkpt>
      <trkpt lat="43.91272" lon="5.17287">
        <ele>336.12</ele>
        <time>2021-01-25T10:26:01Z</time>
      </trkpt>
      <trkpt lat="43.91282" lon="5.17305">
        <ele>337.08</ele>
        <time>2021-01-25T10:26:15Z</time>
      </trkpt>
      <trkpt lat="43.91287" lon="5.17319">
        <ele>337.08</ele>
        <time>2021-01-25T10:26:25Z</time>
      </trkpt>
      <trkpt lat="43.91299" lon="5.17328">
        <ele>338.04</ele>
        <time>2021-01-25T10:26:43Z</time>
      </trkpt>
      <trkpt lat="43.913" lon="5.17327">
        <ele>337.56</ele>
        <time>2021-01-25T10:27:04Z</time>
      </trkpt>
      <trkpt lat="43.91299" lon="5.17325">
        <ele>337.56</ele>
        <time>2021-01-25T10:27:33Z</time>
      </trkpt>
      <trkpt lat="43.913" lon="5.17326">
        <ele>339</ele>
        <time>2021-01-25T10:28:00Z</time>
      </trkpt>
      <trkpt lat="43.913" lon="5.17325">
        <ele>338.52</ele>
        <time>2021-01-25T10:28:22Z</time>
      </trkpt>
      <trkpt lat="43.91299" lon="5.17324">
        <ele>338.04</ele>
        <time>2021-01-25T10:28:52Z</time>
      </trkpt>
      <trkpt lat="43.91295" lon="5.17325">
        <ele>337.56</ele>
        <time>2021-01-25T10:28:56Z</time>
      </trkpt>
      <trkpt lat="43.91292" lon="5.17325">
        <ele>337.08</ele>
        <time>2021-01-25T10:28:59Z</time>
      </trkpt>
      <trkpt lat="43.9128" lon="5.17331">
        <ele>334.68</ele>
        <time>2021-01-25T10:29:15Z</time>
      </trkpt>
      <trkpt lat="43.91261" lon="5.17331">
        <ele>332.75</ele>
        <time>2021-01-25T10:29:33Z</time>
      </trkpt>
      <trkpt lat="43.91238" lon="5.17334">
        <ele>331.79</ele>
        <time>2021-01-25T10:29:53Z</time>
      </trkpt>
      <trkpt lat="43.91229" lon="5.17329">
        <ele>329.39</ele>
        <time>2021-01-25T10:30:07Z</time>
      </trkpt>
      <trkpt lat="43.91228" lon="5.17325">
        <ele>328.91</ele>
        <time>2021-01-25T10:30:22Z</time>
      </trkpt>
      <trkpt lat="43.91217" lon="5.17334">
        <ele>327.95</ele>
        <time>2021-01-25T10:30:41Z</time>
      </trkpt>
      <trkpt lat="43.91216" lon="5.1734">
        <ele>326.99</ele>
        <time>2021-01-25T10:31:03Z</time>
      </trkpt>
      <trkpt lat="43.91215" lon="5.17344">
        <ele>328.43</ele>
        <time>2021-01-25T10:31:26Z</time>
      </trkpt>
      <trkpt lat="43.91212" lon="5.17342">
        <ele>328.43</ele>
        <time>2021-01-25T10:31:49Z</time>
      </trkpt>
      <trkpt lat="43.91207" lon="5.17344">
        <ele>327.95</ele>
        <time>2021-01-25T10:32:07Z</time>
      </trkpt>
      <trkpt lat="43.912" lon="5.17339">
        <ele>327.47</ele>
        <time>2021-01-25T10:32:31Z</time>
      </trkpt>
      <trkpt lat="43.91193" lon="5.17338">
        <ele>327.47</ele>
        <time>2021-01-25T10:32:53Z</time>
      </trkpt>
      <trkpt lat="43.9119" lon="5.17335">
        <ele>327.47</ele>
        <time>2021-01-25T10:33:25Z</time>
      </trkpt>
      <trkpt lat="43.91192" lon="5.1734">
        <ele>327.47</ele>
        <time>2021-01-25T10:33:52Z</time>
      </trkpt>
      <trkpt lat="43.91178" lon="5.17354">
        <ele>326.5</ele>
        <time>2021-01-25T10:34:11Z</time>
      </trkpt>
      <trkpt lat="43.91177" lon="5.17356">
        <ele>325.06</ele>
        <time>2021-01-25T10:34:14Z</time>
      </trkpt>
      <trkpt lat="43.91162" lon="5.1738">
        <ele>323.14</ele>
        <time>2021-01-25T10:34:36Z</time>
      </trkpt>
      <trkpt lat="43.91158" lon="5.17394">
        <ele>321.7</ele>
        <time>2021-01-25T10:34:56Z</time>
      </trkpt>
      <trkpt lat="43.91156" lon="5.17393">
        <ele>321.22</ele>
        <time>2021-01-25T10:35:25Z</time>
      </trkpt>
      <trkpt lat="43.91157" lon="5.17393">
        <ele>321.22</ele>
        <time>2021-01-25T10:35:53Z</time>
      </trkpt>
      <trkpt lat="43.91158" lon="5.17392">
        <ele>321.22</ele>
        <time>2021-01-25T10:36:18Z</time>
      </trkpt>
      <trkpt lat="43.91152" lon="5.1739">
        <ele>321.22</ele>
        <time>2021-01-25T10:36:40Z</time>
      </trkpt>
      <trkpt lat="43.91148" lon="5.17392">
        <ele>321.22</ele>
        <time>2021-01-25T10:36:55Z</time>
      </trkpt>
      <trkpt lat="43.91142" lon="5.17391">
        <ele>321.22</ele>
        <time>2021-01-25T10:37:01Z</time>
      </trkpt>
      <trkpt lat="43.9113" lon="5.17387">
        <ele>318.81</ele>
        <time>2021-01-25T10:37:18Z</time>
      </trkpt>
      <trkpt lat="43.91111" lon="5.17395">
        <ele>316.41</ele>
        <time>2021-01-25T10:37:39Z</time>
      </trkpt>
      <trkpt lat="43.91103" lon="5.17397">
        <ele>315.45</ele>
        <time>2021-01-25T10:37:55Z</time>
      </trkpt>
      <trkpt lat="43.91088" lon="5.17401">
        <ele>314.01</ele>
        <time>2021-01-25T10:38:15Z</time>
      </trkpt>
      <trkpt lat="43.91089" lon="5.174">
        <ele>313.53</ele>
        <time>2021-01-25T10:38:38Z</time>
      </trkpt>
      <trkpt lat="43.91094" lon="5.17404">
        <ele>312.57</ele>
        <time>2021-01-25T10:39:06Z</time>
      </trkpt>
      <trkpt lat="43.91108" lon="5.17406">
        <ele>311.6</ele>
        <time>2021-01-25T10:39:26Z</time>
      </trkpt>
      <trkpt lat="43.91127" lon="5.17405">
        <ele>310.16</ele>
        <time>2021-01-25T10:39:47Z</time>
      </trkpt>
      <trkpt lat="43.91146" lon="5.17406">
        <ele>308.24</ele>
        <time>2021-01-25T10:40:07Z</time>
      </trkpt>
      <trkpt lat="43.91167" lon="5.17399">
        <ele>305.36</ele>
        <time>2021-01-25T10:40:29Z</time>
      </trkpt>
      <trkpt lat="43.91194" lon="5.17398">
        <ele>303.43</ele>
        <time>2021-01-25T10:40:53Z</time>
      </trkpt>
      <trkpt lat="43.91215" lon="5.17403">
        <ele>303.91</ele>
        <time>2021-01-25T10:41:16Z</time>
      </trkpt>
      <trkpt lat="43.91235" lon="5.17414">
        <ele>300.55</ele>
        <time>2021-01-25T10:41:38Z</time>
      </trkpt>
      <trkpt lat="43.91249" lon="5.17423">
        <ele>297.67</ele>
        <time>2021-01-25T10:41:58Z</time>
      </trkpt>
      <trkpt lat="43.91262" lon="5.17431">
        <ele>294.3</ele>
        <time>2021-01-25T10:42:13Z</time>
      </trkpt>
      <trkpt lat="43.91273" lon="5.17445">
        <ele>291.42</ele>
        <time>2021-01-25T10:42:29Z</time>
      </trkpt>
      <trkpt lat="43.91282" lon="5.1746">
        <ele>288.05</ele>
        <time>2021-01-25T10:42:47Z</time>
      </trkpt>
      <trkpt lat="43.91291" lon="5.17469">
        <ele>285.17</ele>
        <time>2021-01-25T10:42:59Z</time>
      </trkpt>
      <trkpt lat="43.91303" lon="5.17482">
        <ele>282.28</ele>
        <time>2021-01-25T10:43:13Z</time>
      </trkpt>
      <trkpt lat="43.9131" lon="5.17493">
        <ele>278.92</ele>
        <time>2021-01-25T10:43:26Z</time>
      </trkpt>
      <trkpt lat="43.91324" lon="5.17506">
        <ele>276.04</ele>
        <time>2021-01-25T10:43:46Z</time>
      </trkpt>
      <trkpt lat="43.91334" lon="5.1752">
        <ele>273.15</ele>
        <time>2021-01-25T10:44:03Z</time>
      </trkpt>
      <trkpt lat="43.91338" lon="5.1753">
        <ele>269.79</ele>
        <time>2021-01-25T10:44:15Z</time>
      </trkpt>
      <trkpt lat="43.91342" lon="5.17548">
        <ele>266.9</ele>
        <time>2021-01-25T10:44:30Z</time>
      </trkpt>
      <trkpt lat="43.91344" lon="5.17565">
        <ele>263.54</ele>
        <time>2021-01-25T10:44:43Z</time>
      </trkpt>
      <trkpt lat="43.91352" lon="5.17578">
        <ele>260.65</ele>
        <time>2021-01-25T10:44:58Z</time>
      </trkpt>
      <trkpt lat="43.91373" lon="5.17591">
        <ele>258.25</ele>
        <time>2021-01-25T10:45:21Z</time>
      </trkpt>
      <trkpt lat="43.91382" lon="5.17599">
        <ele>255.37</ele>
        <time>2021-01-25T10:45:35Z</time>
      </trkpt>
      <trkpt lat="43.91391" lon="5.17612">
        <ele>252</ele>
        <time>2021-01-25T10:45:48Z</time>
      </trkpt>
      <trkpt lat="43.91389" lon="5.17616">
        <ele>251.04</ele>
        <time>2021-01-25T10:46:03Z</time>
      </trkpt>
      <trkpt lat="43.91385" lon="5.17614">
        <ele>249.6</ele>
        <time>2021-01-25T10:46:25Z</time>
      </trkpt>
      <trkpt lat="43.91383" lon="5.17617">
        <ele>249.12</ele>
        <time>2021-01-25T10:46:55Z</time>
      </trkpt>
      <trkpt lat="43.91388" lon="5.17615">
        <ele>249.12</ele>
        <time>2021-01-25T10:47:30Z</time>
      </trkpt>
      <trkpt lat="43.91385" lon="5.17615">
        <ele>249.12</ele>
        <time>2021-01-25T10:48:04Z</time>
      </trkpt>
      <trkpt lat="43.91384" lon="5.17612">
        <ele>249.12</ele>
        <time>2021-01-25T10:48:22Z</time>
      </trkpt>
      <trkpt lat="43.91386" lon="5.17611">
        <ele>249.12</ele>
        <time>2021-01-25T10:48:45Z</time>
      </trkpt>
      <trkpt lat="43.91398" lon="5.17623">
        <ele>251.04</ele>
        <time>2021-01-25T10:49:03Z</time>
      </trkpt>
      <trkpt lat="43.91399" lon="5.17624">
        <ele>251.52</ele>
        <time>2021-01-25T10:49:04Z</time>
      </trkpt>
      <trkpt lat="43.91408" lon="5.17625">
        <ele>252</ele>
        <time>2021-01-25T10:49:12Z</time>
      </trkpt>
      <trkpt lat="43.91418" lon="5.17624">
        <ele>252.96</ele>
        <time>2021-01-25T10:49:27Z</time>
      </trkpt>
      <trkpt lat="43.91427" lon="5.17623">
        <ele>253.44</ele>
        <time>2021-01-25T10:49:40Z</time>
      </trkpt>
      <trkpt lat="43.91431" lon="5.1762">
        <ele>252.96</ele>
        <time>2021-01-25T10:49:57Z</time>
      </trkpt>
      <trkpt lat="43.91429" lon="5.17617">
        <ele>252.96</ele>
        <time>2021-01-25T10:50:28Z</time>
      </trkpt>
      <trkpt lat="43.9143" lon="5.17614">
        <ele>252.96</ele>
        <time>2021-01-25T10:51:00Z</time>
      </trkpt>
      <trkpt lat="43.91429" lon="5.17618">
        <ele>253.93</ele>
        <time>2021-01-25T10:51:28Z</time>
      </trkpt>
      <trkpt lat="43.91429" lon="5.17622">
        <ele>253.44</ele>
        <time>2021-01-25T10:52:01Z</time>
      </trkpt>
      <trkpt lat="43.9143" lon="5.17625">
        <ele>253.44</ele>
        <time>2021-01-25T10:52:31Z</time>
      </trkpt>
      <trkpt lat="43.91429" lon="5.17622">
        <ele>253.44</ele>
        <time>2021-01-25T10:53:05Z</time>
      </trkpt>
      <trkpt lat="43.91426" lon="5.17628">
        <ele>253.44</ele>
        <time>2021-01-25T10:53:29Z</time>
      </trkpt>
      <trkpt lat="43.91427" lon="5.17634">
        <ele>253.44</ele>
        <time>2021-01-25T10:53:47Z</time>
      </trkpt>
      <trkpt lat="43.91426" lon="5.17635">
        <ele>253.44</ele>
        <time>2021-01-25T10:54:08Z</time>
      </trkpt>
      <trkpt lat="43.91426" lon="5.17637">
        <ele>253.44</ele>
        <time>2021-01-25T10:54:37Z</time>
      </trkpt>
      <trkpt lat="43.91425" lon="5.17637">
        <ele>253.44</ele>
        <time>2021-01-25T10:55:14Z</time>
      </trkpt>
      <trkpt lat="43.91426" lon="5.17638">
        <ele>253.44</ele>
        <time>2021-01-25T10:56:15Z</time>
      </trkpt>
      <trkpt lat="43.91425" lon="5.17638">
        <ele>253.44</ele>
        <time>2021-01-25T10:57:05Z</time>
      </trkpt>
      <trkpt lat="43.91426" lon="5.1764">
        <ele>253.44</ele>
        <time>2021-01-25T10:57:37Z</time>
      </trkpt>
      <trkpt lat="43.91425" lon="5.17642">
        <ele>253.44</ele>
        <time>2021-01-25T10:58:39Z</time>
      </trkpt>
      <trkpt lat="43.91431" lon="5.17638">
        <ele>253.44</ele>
        <time>2021-01-25T10:59:28Z</time>
      </trkpt>
      <trkpt lat="43.91426" lon="5.17638">
        <ele>253.44</ele>
        <time>2021-01-25T11:00:00Z</time>
      </trkpt>
      <trkpt lat="43.9142" lon="5.17638">
        <ele>250.56</ele>
        <time>2021-01-25T11:00:28Z</time>
      </trkpt>
      <trkpt lat="43.91427" lon="5.17638">
        <ele>250.56</ele>
        <time>2021-01-25T11:01:01Z</time>
      </trkpt>
      <trkpt lat="43.91425" lon="5.17635">
        <ele>250.56</ele>
        <time>2021-01-25T11:01:29Z</time>
      </trkpt>
      <trkpt lat="43.91423" lon="5.17634">
        <ele>250.56</ele>
        <time>2021-01-25T11:02:03Z</time>
      </trkpt>
      <trkpt lat="43.91426" lon="5.17633">
        <ele>250.56</ele>
        <time>2021-01-25T11:02:56Z</time>
      </trkpt>
      <trkpt lat="43.91423" lon="5.17635">
        <ele>250.56</ele>
        <time>2021-01-25T11:03:40Z</time>
      </trkpt>
      <trkpt lat="43.91423" lon="5.17635">
        <ele>250.56</ele>
        <time>2021-01-25T11:04:11Z</time>
      </trkpt>
      <trkpt lat="43.91417" lon="5.17635">
        <ele>250.56</ele>
        <time>2021-01-25T11:04:35Z</time>
      </trkpt>
      <trkpt lat="43.91421" lon="5.17638">
        <ele>251.04</ele>
        <time>2021-01-25T11:05:10Z</time>
      </trkpt>
      <trkpt lat="43.91426" lon="5.17638">
        <ele>251.04</ele>
        <time>2021-01-25T11:05:38Z</time>
      </trkpt>
      <trkpt lat="43.91425" lon="5.17635">
        <ele>251.04</ele>
        <time>2021-01-25T11:06:09Z</time>
      </trkpt>
      <trkpt lat="43.91422" lon="5.17638">
        <ele>251.04</ele>
        <time>2021-01-25T11:06:42Z</time>
      </trkpt>
      <trkpt lat="43.91427" lon="5.17628">
        <ele>251.04</ele>
        <time>2021-01-25T11:07:14Z</time>
      </trkpt>
      <trkpt lat="43.91426" lon="5.17632">
        <ele>251.04</ele>
        <time>2021-01-25T11:07:45Z</time>
      </trkpt>
      <trkpt lat="43.91426" lon="5.17633">
        <ele>251.04</ele>
        <time>2021-01-25T11:07:57Z</time>
      </trkpt>
      <trkpt lat="43.91424" lon="5.17637">
        <ele>251.52</ele>
        <time>2021-01-25T11:08:27Z</time>
      </trkpt>
      <trkpt lat="43.91423" lon="5.17638">
        <ele>251.52</ele>
        <time>2021-01-25T11:08:55Z</time>
      </trkpt>
      <trkpt lat="43.91426" lon="5.17638">
        <ele>251.52</ele>
        <time>2021-01-25T11:09:29Z</time>
      </trkpt>
      <trkpt lat="43.91426" lon="5.17639">
        <ele>251.52</ele>
        <time>2021-01-25T11:09:57Z</time>
      </trkpt>
      <trkpt lat="43.91418" lon="5.17641">
        <ele>251.52</ele>
        <time>2021-01-25T11:10:27Z</time>
      </trkpt>
      <trkpt lat="43.91423" lon="5.17639">
        <ele>251.52</ele>
        <time>2021-01-25T11:10:59Z</time>
      </trkpt>
      <trkpt lat="43.91422" lon="5.17645">
        <ele>251.52</ele>
        <time>2021-01-25T11:11:33Z</time>
      </trkpt>
      <trkpt lat="43.91426" lon="5.17638">
        <ele>251.52</ele>
        <time>2021-01-25T11:12:08Z</time>
      </trkpt>
      <trkpt lat="43.91427" lon="5.17638">
        <ele>251.52</ele>
        <time>2021-01-25T11:12:44Z</time>
      </trkpt>
      <trkpt lat="43.91424" lon="5.17637">
        <ele>251.52</ele>
        <time>2021-01-25T11:13:17Z</time>
      </trkpt>
      <trkpt lat="43.91423" lon="5.1764">
        <ele>251.52</ele>
        <time>2021-01-25T11:13:48Z</time>
      </trkpt>
      <trkpt lat="43.91426" lon="5.17638">
        <ele>251.52</ele>
        <time>2021-01-25T11:14:22Z</time>
      </trkpt>
      <trkpt lat="43.91426" lon="5.17639">
        <ele>251.52</ele>
        <time>2021-01-25T11:15:06Z</time>
      </trkpt>
      <trkpt lat="43.9143" lon="5.17638">
        <ele>251.52</ele>
        <time>2021-01-25T11:15:41Z</time>
      </trkpt>
      <trkpt lat="43.9143" lon="5.17638">
        <ele>251.52</ele>
        <time>2021-01-25T11:15:42Z</time>
      </trkpt>
      <trkpt lat="43.91425" lon="5.17636">
        <ele>251.04</ele>
        <time>2021-01-25T11:16:13Z</time>
      </trkpt>
      <trkpt lat="43.91435" lon="5.17636">
        <ele>251.04</ele>
        <time>2021-01-25T11:16:41Z</time>
      </trkpt>
      <trkpt lat="43.91424" lon="5.17645">
        <ele>251.04</ele>
        <time>2021-01-25T11:17:13Z</time>
      </trkpt>
      <trkpt lat="43.91427" lon="5.17646">
        <ele>251.52</ele>
        <time>2021-01-25T11:17:39Z</time>
      </trkpt>
      <trkpt lat="43.91425" lon="5.17642">
        <ele>251.52</ele>
        <time>2021-01-25T11:18:11Z</time>
      </trkpt>
      <trkpt lat="43.91424" lon="5.17643">
        <ele>251.52</ele>
        <time>2021-01-25T11:18:49Z</time>
      </trkpt>
      <trkpt lat="43.91422" lon="5.17645">
        <ele>252</ele>
        <time>2021-01-25T11:19:27Z</time>
      </trkpt>
      <trkpt lat="43.91427" lon="5.17638">
        <ele>252</ele>
        <time>2021-01-25T11:19:59Z</time>
      </trkpt>
      <trkpt lat="43.91434" lon="5.17631">
        <ele>252</ele>
        <time>2021-01-25T11:20:30Z</time>
      </trkpt>
      <trkpt lat="43.91434" lon="5.17635">
        <ele>252</ele>
        <time>2021-01-25T11:21:00Z</time>
      </trkpt>
      <trkpt lat="43.91425" lon="5.17646">
        <ele>252</ele>
        <time>2021-01-25T11:21:37Z</time>
      </trkpt>
      <trkpt lat="43.9143" lon="5.17635">
        <ele>252</ele>
        <time>2021-01-25T11:22:11Z</time>
      </trkpt>
      <trkpt lat="43.91428" lon="5.17641">
        <ele>252</ele>
        <time>2021-01-25T11:22:45Z</time>
      </trkpt>
      <trkpt lat="43.91425" lon="5.17644">
        <ele>252</ele>
        <time>2021-01-25T11:23:18Z</time>
      </trkpt>
      <trkpt lat="43.91424" lon="5.17645">
        <ele>252</ele>
        <time>2021-01-25T11:23:54Z</time>
      </trkpt>
      <trkpt lat="43.91426" lon="5.17642">
        <ele>252</ele>
        <time>2021-01-25T11:24:27Z</time>
      </trkpt>
      <trkpt lat="43.91428" lon="5.17635">
        <ele>252</ele>
        <time>2021-01-25T11:25:01Z</time>
      </trkpt>
      <trkpt lat="43.91426" lon="5.17638">
        <ele>252</ele>
        <time>2021-01-25T11:25:34Z</time>
      </trkpt>
      <trkpt lat="43.91427" lon="5.17638">
        <ele>252</ele>
        <time>2021-01-25T11:26:06Z</time>
      </trkpt>
      <trkpt lat="43.91425" lon="5.17638">
        <ele>252</ele>
        <time>2021-01-25T11:26:52Z</time>
      </trkpt>
      <trkpt lat="43.91425" lon="5.17636">
        <ele>252</ele>
        <time>2021-01-25T11:27:27Z</time>
      </trkpt>
      <trkpt lat="43.91424" lon="5.17637">
        <ele>252</ele>
        <time>2021-01-25T11:28:00Z</time>
      </trkpt>
      <trkpt lat="43.91425" lon="5.17632">
        <ele>252</ele>
        <time>2021-01-25T11:28:30Z</time>
      </trkpt>
      <trkpt lat="43.9143" lon="5.17628">
        <ele>252</ele>
        <time>2021-01-25T11:28:56Z</time>
      </trkpt>
      <trkpt lat="43.91428" lon="5.17627">
        <ele>252</ele>
        <time>2021-01-25T11:29:20Z</time>
      </trkpt>
      <trkpt lat="43.91429" lon="5.1762">
        <ele>253.93</ele>
        <time>2021-01-25T11:29:50Z</time>
      </trkpt>
      <trkpt lat="43.91417" lon="5.17619">
        <ele>253.93</ele>
        <time>2021-01-25T11:30:06Z</time>
      </trkpt>
      <trkpt lat="43.91405" lon="5.17621">
        <ele>252.96</ele>
        <time>2021-01-25T11:30:18Z</time>
      </trkpt>
      <trkpt lat="43.914" lon="5.17622">
        <ele>252.48</ele>
        <time>2021-01-25T11:30:22Z</time>
      </trkpt>
      <trkpt lat="43.91385" lon="5.17618">
        <ele>250.56</ele>
        <time>2021-01-25T11:30:38Z</time>
      </trkpt>
      <trkpt lat="43.91367" lon="5.17614">
        <ele>249.12</ele>
        <time>2021-01-25T11:30:57Z</time>
      </trkpt>
      <trkpt lat="43.91344" lon="5.17612">
        <ele>248.64</ele>
        <time>2021-01-25T11:31:20Z</time>
      </trkpt>
      <trkpt lat="43.9133" lon="5.17609">
        <ele>248.64</ele>
        <time>2021-01-25T11:31:34Z</time>
      </trkpt>
      <trkpt lat="43.91323" lon="5.17602">
        <ele>248.64</ele>
        <time>2021-01-25T11:31:43Z</time>
      </trkpt>
      <trkpt lat="43.9131" lon="5.17596">
        <ele>247.2</ele>
        <time>2021-01-25T11:31:56Z</time>
      </trkpt>
      <trkpt lat="43.91296" lon="5.17591">
        <ele>245.75</ele>
        <time>2021-01-25T11:32:14Z</time>
      </trkpt>
      <trkpt lat="43.91293" lon="5.17592">
        <ele>244.79</ele>
        <time>2021-01-25T11:32:33Z</time>
      </trkpt>
      <trkpt lat="43.91295" lon="5.17578">
        <ele>247.68</ele>
        <time>2021-01-25T11:32:53Z</time>
      </trkpt>
      <trkpt lat="43.91291" lon="5.17576">
        <ele>248.16</ele>
        <time>2021-01-25T11:32:56Z</time>
      </trkpt>
      <trkpt lat="43.91286" lon="5.17574">
        <ele>248.16</ele>
        <time>2021-01-25T11:33:00Z</time>
      </trkpt>
      <trkpt lat="43.91283" lon="5.17573">
        <ele>248.16</ele>
        <time>2021-01-25T11:33:03Z</time>
      </trkpt>
      <trkpt lat="43.91265" lon="5.1757">
        <ele>247.2</ele>
        <time>2021-01-25T11:33:18Z</time>
      </trkpt>
      <trkpt lat="43.91252" lon="5.17579">
        <ele>245.75</ele>
        <time>2021-01-25T11:33:33Z</time>
      </trkpt>
      <trkpt lat="43.91239" lon="5.1758">
        <ele>245.75</ele>
        <time>2021-01-25T11:33:51Z</time>
      </trkpt>
      <trkpt lat="43.91233" lon="5.17578">
        <ele>245.75</ele>
        <time>2021-01-25T11:33:58Z</time>
      </trkpt>
      <trkpt lat="43.91219" lon="5.17577">
        <ele>245.75</ele>
        <time>2021-01-25T11:34:13Z</time>
      </trkpt>
      <trkpt lat="43.91218" lon="5.17577">
        <ele>245.75</ele>
        <time>2021-01-25T11:34:14Z</time>
      </trkpt>
      <trkpt lat="43.91207" lon="5.17576">
        <ele>245.75</ele>
        <time>2021-01-25T11:34:22Z</time>
      </trkpt>
      <trkpt lat="43.91204" lon="5.17576">
        <ele>245.75</ele>
        <time>2021-01-25T11:34:24Z</time>
      </trkpt>
      <trkpt lat="43.91183" lon="5.1758">
        <ele>244.79</ele>
        <time>2021-01-25T11:34:43Z</time>
      </trkpt>
      <trkpt lat="43.91163" lon="5.17577">
        <ele>242.87</ele>
        <time>2021-01-25T11:35:01Z</time>
      </trkpt>
      <trkpt lat="43.91155" lon="5.1758">
        <ele>241.91</ele>
        <time>2021-01-25T11:35:07Z</time>
      </trkpt>
      <trkpt lat="43.91144" lon="5.17592">
        <ele>240.95</ele>
        <time>2021-01-25T11:35:20Z</time>
      </trkpt>
      <trkpt lat="43.91128" lon="5.17596">
        <ele>239.51</ele>
        <time>2021-01-25T11:35:35Z</time>
      </trkpt>
      <trkpt lat="43.91115" lon="5.17597">
        <ele>239.02</ele>
        <time>2021-01-25T11:35:49Z</time>
      </trkpt>
      <trkpt lat="43.91099" lon="5.17602">
        <ele>238.54</ele>
        <time>2021-01-25T11:36:06Z</time>
      </trkpt>
      <trkpt lat="43.91087" lon="5.17603">
        <ele>238.54</ele>
        <time>2021-01-25T11:36:17Z</time>
      </trkpt>
      <trkpt lat="43.91077" lon="5.17604">
        <ele>239.02</ele>
        <time>2021-01-25T11:36:27Z</time>
      </trkpt>
      <trkpt lat="43.91065" lon="5.17608">
        <ele>239.02</ele>
        <time>2021-01-25T11:36:36Z</time>
      </trkpt>
      <trkpt lat="43.91061" lon="5.1761">
        <ele>239.02</ele>
        <time>2021-01-25T11:36:39Z</time>
      </trkpt>
      <trkpt lat="43.91054" lon="5.17607">
        <ele>238.54</ele>
        <time>2021-01-25T11:36:45Z</time>
      </trkpt>
      <trkpt lat="43.9105" lon="5.17609">
        <ele>238.06</ele>
        <time>2021-01-25T11:36:49Z</time>
      </trkpt>
      <trkpt lat="43.91035" lon="5.17623">
        <ele>235.66</ele>
        <time>2021-01-25T11:37:08Z</time>
      </trkpt>
      <trkpt lat="43.91016" lon="5.17632">
        <ele>236.62</ele>
        <time>2021-01-25T11:37:27Z</time>
      </trkpt>
      <trkpt lat="43.91015" lon="5.17631">
        <ele>235.66</ele>
        <time>2021-01-25T11:37:48Z</time>
      </trkpt>
      <trkpt lat="43.91014" lon="5.17633">
        <ele>235.66</ele>
        <time>2021-01-25T11:38:17Z</time>
      </trkpt>
      <trkpt lat="43.91014" lon="5.17632">
        <ele>236.62</ele>
        <time>2021-01-25T11:38:40Z</time>
      </trkpt>
      <trkpt lat="43.91018" lon="5.17634">
        <ele>236.62</ele>
        <time>2021-01-25T11:39:10Z</time>
      </trkpt>
      <trkpt lat="43.91021" lon="5.17634">
        <ele>236.62</ele>
        <time>2021-01-25T11:39:41Z</time>
      </trkpt>
      <trkpt lat="43.91019" lon="5.17632">
        <ele>236.62</ele>
        <time>2021-01-25T11:40:16Z</time>
      </trkpt>
      <trkpt lat="43.91018" lon="5.17633">
        <ele>236.62</ele>
        <time>2021-01-25T11:40:45Z</time>
      </trkpt>
      <trkpt lat="43.91004" lon="5.17633">
        <ele>236.62</ele>
        <time>2021-01-25T11:41:11Z</time>
      </trkpt>
      <trkpt lat="43.90992" lon="5.17632">
        <ele>237.58</ele>
        <time>2021-01-25T11:41:21Z</time>
      </trkpt>
      <trkpt lat="43.90974" lon="5.1764">
        <ele>236.62</ele>
        <time>2021-01-25T11:41:38Z</time>
      </trkpt>
      <trkpt lat="43.90953" lon="5.17648">
        <ele>235.66</ele>
        <time>2021-01-25T11:41:56Z</time>
      </trkpt>
      <trkpt lat="43.90934" lon="5.17649">
        <ele>235.18</ele>
        <time>2021-01-25T11:42:12Z</time>
      </trkpt>
      <trkpt lat="43.90913" lon="5.1764">
        <ele>235.18</ele>
        <time>2021-01-25T11:42:31Z</time>
      </trkpt>
      <trkpt lat="43.9089" lon="5.1763">
        <ele>235.66</ele>
        <time>2021-01-25T11:42:54Z</time>
      </trkpt>
      <trkpt lat="43.90873" lon="5.1763">
        <ele>234.7</ele>
        <time>2021-01-25T11:43:11Z</time>
      </trkpt>
      <trkpt lat="43.90863" lon="5.17634">
        <ele>234.22</ele>
        <time>2021-01-25T11:43:20Z</time>
      </trkpt>
      <trkpt lat="43.90843" lon="5.17629">
        <ele>232.78</ele>
        <time>2021-01-25T11:43:35Z</time>
      </trkpt>
      <trkpt lat="43.90827" lon="5.17614">
        <ele>232.3</ele>
        <time>2021-01-25T11:43:51Z</time>
      </trkpt>
      <trkpt lat="43.90815" lon="5.17602">
        <ele>231.81</ele>
        <time>2021-01-25T11:44:05Z</time>
      </trkpt>
      <trkpt lat="43.90798" lon="5.17576">
        <ele>231.81</ele>
        <time>2021-01-25T11:44:24Z</time>
      </trkpt>
      <trkpt lat="43.90789" lon="5.17554">
        <ele>232.78</ele>
        <time>2021-01-25T11:44:41Z</time>
      </trkpt>
      <trkpt lat="43.90782" lon="5.17551">
        <ele>232.3</ele>
        <time>2021-01-25T11:44:48Z</time>
      </trkpt>
      <trkpt lat="43.90758" lon="5.17551">
        <ele>231.81</ele>
        <time>2021-01-25T11:45:06Z</time>
      </trkpt>
      <trkpt lat="43.9074" lon="5.17545">
        <ele>232.3</ele>
        <time>2021-01-25T11:45:21Z</time>
      </trkpt>
      <trkpt lat="43.90724" lon="5.17548">
        <ele>231.81</ele>
        <time>2021-01-25T11:45:36Z</time>
      </trkpt>
      <trkpt lat="43.90704" lon="5.17549">
        <ele>232.3</ele>
        <time>2021-01-25T11:45:54Z</time>
      </trkpt>
      <trkpt lat="43.90696" lon="5.17551">
        <ele>231.33</ele>
        <time>2021-01-25T11:46:03Z</time>
      </trkpt>
      <trkpt lat="43.9068" lon="5.17567">
        <ele>228.45</ele>
        <time>2021-01-25T11:46:20Z</time>
      </trkpt>
      <trkpt lat="43.90676" lon="5.17571">
        <ele>227.97</ele>
        <time>2021-01-25T11:46:23Z</time>
      </trkpt>
      <trkpt lat="43.90651" lon="5.17582">
        <ele>226.05</ele>
        <time>2021-01-25T11:46:40Z</time>
      </trkpt>
      <trkpt lat="43.90636" lon="5.17592">
        <ele>225.09</ele>
        <time>2021-01-25T11:46:56Z</time>
      </trkpt>
      <trkpt lat="43.90631" lon="5.176">
        <ele>223.64</ele>
        <time>2021-01-25T11:47:14Z</time>
      </trkpt>
      <trkpt lat="43.90631" lon="5.176">
        <ele>223.64</ele>
        <time>2021-01-25T11:47:44Z</time>
      </trkpt>
      <trkpt lat="43.90626" lon="5.17604">
        <ele>222.68</ele>
        <time>2021-01-25T11:48:13Z</time>
      </trkpt>
      <trkpt lat="43.90616" lon="5.17612">
        <ele>220.76</ele>
        <time>2021-01-25T11:48:27Z</time>
      </trkpt>
      <trkpt lat="43.90598" lon="5.17622">
        <ele>220.28</ele>
        <time>2021-01-25T11:48:50Z</time>
      </trkpt>
      <trkpt lat="43.90577" lon="5.17642">
        <ele>220.76</ele>
        <time>2021-01-25T11:49:12Z</time>
      </trkpt>
      <trkpt lat="43.90566" lon="5.17661">
        <ele>221.24</ele>
        <time>2021-01-25T11:49:31Z</time>
      </trkpt>
      <trkpt lat="43.9055" lon="5.1768">
        <ele>221.72</ele>
        <time>2021-01-25T11:49:47Z</time>
      </trkpt>
      <trkpt lat="43.90544" lon="5.17683">
        <ele>221.72</ele>
        <time>2021-01-25T11:49:51Z</time>
      </trkpt>
      <trkpt lat="43.90534" lon="5.17704">
        <ele>223.16</ele>
        <time>2021-01-25T11:50:07Z</time>
      </trkpt>
      <trkpt lat="43.90523" lon="5.17718">
        <ele>224.61</ele>
        <time>2021-01-25T11:50:24Z</time>
      </trkpt>
      <trkpt lat="43.90505" lon="5.17743">
        <ele>224.12</ele>
        <time>2021-01-25T11:50:45Z</time>
      </trkpt>
      <trkpt lat="43.90487" lon="5.1776">
        <ele>223.16</ele>
        <time>2021-01-25T11:51:05Z</time>
      </trkpt>
      <trkpt lat="43.9047" lon="5.17775">
        <ele>222.2</ele>
        <time>2021-01-25T11:51:21Z</time>
      </trkpt>
      <trkpt lat="43.90452" lon="5.17794">
        <ele>221.72</ele>
        <time>2021-01-25T11:51:43Z</time>
      </trkpt>
      <trkpt lat="43.90433" lon="5.17807">
        <ele>220.76</ele>
        <time>2021-01-25T11:52:02Z</time>
      </trkpt>
      <trkpt lat="43.90422" lon="5.17829">
        <ele>220.28</ele>
        <time>2021-01-25T11:52:21Z</time>
      </trkpt>
      <trkpt lat="43.90416" lon="5.17833">
        <ele>219.8</ele>
        <time>2021-01-25T11:52:40Z</time>
      </trkpt>
      <trkpt lat="43.90417" lon="5.17833">
        <ele>219.8</ele>
        <time>2021-01-25T11:53:03Z</time>
      </trkpt>
      <trkpt lat="43.90415" lon="5.1783">
        <ele>219.8</ele>
        <time>2021-01-25T11:53:33Z</time>
      </trkpt>
      <trkpt lat="43.90417" lon="5.1783">
        <ele>219.8</ele>
        <time>2021-01-25T11:53:42Z</time>
      </trkpt>
      <trkpt lat="43.90414" lon="5.17836">
        <ele>219.8</ele>
        <time>2021-01-25T11:54:11Z</time>
      </trkpt>
      <trkpt lat="43.90411" lon="5.17844">
        <ele>219.8</ele>
        <time>2021-01-25T11:54:18Z</time>
      </trkpt>
      <trkpt lat="43.90405" lon="5.17868">
        <ele>218.84</ele>
        <time>2021-01-25T11:54:33Z</time>
      </trkpt>
      <trkpt lat="43.90409" lon="5.17884">
        <ele>219.32</ele>
        <time>2021-01-25T11:54:46Z</time>
      </trkpt>
      <trkpt lat="43.90419" lon="5.17909">
        <ele>218.84</ele>
        <time>2021-01-25T11:55:08Z</time>
      </trkpt>
      <trkpt lat="43.90417" lon="5.1792">
        <ele>215.47</ele>
        <time>2021-01-25T11:55:27Z</time>
      </trkpt>
      <trkpt lat="43.90415" lon="5.17955">
        <ele>214.03</ele>
        <time>2021-01-25T11:55:49Z</time>
      </trkpt>
      <trkpt lat="43.90412" lon="5.17975">
        <ele>214.03</ele>
        <time>2021-01-25T11:56:04Z</time>
      </trkpt>
      <trkpt lat="43.90405" lon="5.17982">
        <ele>210.67</ele>
        <time>2021-01-25T11:56:16Z</time>
      </trkpt>
      <trkpt lat="43.90396" lon="5.17992">
        <ele>211.15</ele>
        <time>2021-01-25T11:56:38Z</time>
      </trkpt>
      <trkpt lat="43.90379" lon="5.18003">
        <ele>211.15</ele>
        <time>2021-01-25T11:56:56Z</time>
      </trkpt>
      <trkpt lat="43.90377" lon="5.18003">
        <ele>211.15</ele>
        <time>2021-01-25T11:56:58Z</time>
      </trkpt>
      <trkpt lat="43.90363" lon="5.18014">
        <ele>209.22</ele>
        <time>2021-01-25T11:57:18Z</time>
      </trkpt>
      <trkpt lat="43.90354" lon="5.18023">
        <ele>209.7</ele>
        <time>2021-01-25T11:57:35Z</time>
      </trkpt>
      <trkpt lat="43.90339" lon="5.18029">
        <ele>210.67</ele>
        <time>2021-01-25T11:57:49Z</time>
      </trkpt>
      <trkpt lat="43.9032" lon="5.18038">
        <ele>209.7</ele>
        <time>2021-01-25T11:58:10Z</time>
      </trkpt>
      <trkpt lat="43.90294" lon="5.18056">
        <ele>209.22</ele>
        <time>2021-01-25T11:58:31Z</time>
      </trkpt>
      <trkpt lat="43.90288" lon="5.18074">
        <ele>209.22</ele>
        <time>2021-01-25T11:58:44Z</time>
      </trkpt>
      <trkpt lat="43.90276" lon="5.18099">
        <ele>208.26</ele>
        <time>2021-01-25T11:59:03Z</time>
      </trkpt>
      <trkpt lat="43.9027" lon="5.18123">
        <ele>208.26</ele>
        <time>2021-01-25T11:59:18Z</time>
      </trkpt>
      <trkpt lat="43.90266" lon="5.18143">
        <ele>210.19</ele>
        <time>2021-01-25T11:59:32Z</time>
      </trkpt>
      <trkpt lat="43.90259" lon="5.18172">
        <ele>209.7</ele>
        <time>2021-01-25T11:59:49Z</time>
      </trkpt>
      <trkpt lat="43.90258" lon="5.18175">
        <ele>209.7</ele>
        <time>2021-01-25T11:59:51Z</time>
      </trkpt>
      <trkpt lat="43.90251" lon="5.18191">
        <ele>209.22</ele>
        <time>2021-01-25T12:00:07Z</time>
      </trkpt>
      <trkpt lat="43.90233" lon="5.18212">
        <ele>207.78</ele>
        <time>2021-01-25T12:00:26Z</time>
      </trkpt>
      <trkpt lat="43.90218" lon="5.18233">
        <ele>207.78</ele>
        <time>2021-01-25T12:00:45Z</time>
      </trkpt>
      <trkpt lat="43.90208" lon="5.18246">
        <ele>207.3</ele>
        <time>2021-01-25T12:01:05Z</time>
      </trkpt>
      <trkpt lat="43.90206" lon="5.18246">
        <ele>207.3</ele>
        <time>2021-01-25T12:01:27Z</time>
      </trkpt>
      <trkpt lat="43.90195" lon="5.18245">
        <ele>205.86</ele>
        <time>2021-01-25T12:01:51Z</time>
      </trkpt>
      <trkpt lat="43.90185" lon="5.18247">
        <ele>204.9</ele>
        <time>2021-01-25T12:02:05Z</time>
      </trkpt>
      <trkpt lat="43.90165" lon="5.18242">
        <ele>202.49</ele>
        <time>2021-01-25T12:02:27Z</time>
      </trkpt>
      <trkpt lat="43.90153" lon="5.18231">
        <ele>200.09</ele>
        <time>2021-01-25T12:02:47Z</time>
      </trkpt>
      <trkpt lat="43.90138" lon="5.18231">
        <ele>199.13</ele>
        <time>2021-01-25T12:03:04Z</time>
      </trkpt>
      <trkpt lat="43.9012" lon="5.18232">
        <ele>198.65</ele>
        <time>2021-01-25T12:03:26Z</time>
      </trkpt>
      <trkpt lat="43.90112" lon="5.18238">
        <ele>198.17</ele>
        <time>2021-01-25T12:03:48Z</time>
      </trkpt>
      <trkpt lat="43.90108" lon="5.18239">
        <ele>198.65</ele>
        <time>2021-01-25T12:03:51Z</time>
      </trkpt>
      <trkpt lat="43.90097" lon="5.18257">
        <ele>198.17</ele>
        <time>2021-01-25T12:04:13Z</time>
      </trkpt>
      <trkpt lat="43.90087" lon="5.18279">
        <ele>196.73</ele>
        <time>2021-01-25T12:04:37Z</time>
      </trkpt>
      <trkpt lat="43.90085" lon="5.18301">
        <ele>196.73</ele>
        <time>2021-01-25T12:04:58Z</time>
      </trkpt>
      <trkpt lat="43.90084" lon="5.18322">
        <ele>196.73</ele>
        <time>2021-01-25T12:05:15Z</time>
      </trkpt>
      <trkpt lat="43.90082" lon="5.18336">
        <ele>196.25</ele>
        <time>2021-01-25T12:05:37Z</time>
      </trkpt>
      <trkpt lat="43.90082" lon="5.18338">
        <ele>195.77</ele>
        <time>2021-01-25T12:05:40Z</time>
      </trkpt>
      <trkpt lat="43.9008" lon="5.18343">
        <ele>198.17</ele>
        <time>2021-01-25T12:06:02Z</time>
      </trkpt>
      <trkpt lat="43.90081" lon="5.18342">
        <ele>198.65</ele>
        <time>2021-01-25T12:06:33Z</time>
      </trkpt>
      <trkpt lat="43.90083" lon="5.18341">
        <ele>197.69</ele>
        <time>2021-01-25T12:06:58Z</time>
      </trkpt>
      <trkpt lat="43.90085" lon="5.1834">
        <ele>197.69</ele>
        <time>2021-01-25T12:07:27Z</time>
      </trkpt>
      <trkpt lat="43.90083" lon="5.18339">
        <ele>198.17</ele>
        <time>2021-01-25T12:07:37Z</time>
      </trkpt>
      <trkpt lat="43.9008" lon="5.18338">
        <ele>197.69</ele>
        <time>2021-01-25T12:08:05Z</time>
      </trkpt>
      <trkpt lat="43.90082" lon="5.1834">
        <ele>197.69</ele>
        <time>2021-01-25T12:08:16Z</time>
      </trkpt>
      <trkpt lat="43.90079" lon="5.18351">
        <ele>197.69</ele>
        <time>2021-01-25T12:08:37Z</time>
      </trkpt>
      <trkpt lat="43.90066" lon="5.18365">
        <ele>201.05</ele>
        <time>2021-01-25T12:08:56Z</time>
      </trkpt>
      <trkpt lat="43.90056" lon="5.18373">
        <ele>203.94</ele>
        <time>2021-01-25T12:09:14Z</time>
      </trkpt>
      <trkpt lat="43.90047" lon="5.18373">
        <ele>205.38</ele>
        <time>2021-01-25T12:09:36Z</time>
      </trkpt>
      <trkpt lat="43.9004" lon="5.18374">
        <ele>207.78</ele>
        <time>2021-01-25T12:09:55Z</time>
      </trkpt>
      <trkpt lat="43.90052" lon="5.1837">
        <ele>210.67</ele>
        <time>2021-01-25T12:10:14Z</time>
      </trkpt>
      <trkpt lat="43.9006" lon="5.18367">
        <ele>211.63</ele>
        <time>2021-01-25T12:10:31Z</time>
      </trkpt>
      <trkpt lat="43.9005" lon="5.18363">
        <ele>214.99</ele>
        <time>2021-01-25T12:10:49Z</time>
      </trkpt>
      <trkpt lat="43.9005" lon="5.18365">
        <ele>216.43</ele>
        <time>2021-01-25T12:11:11Z</time>
      </trkpt>
      <trkpt lat="43.90061" lon="5.18369">
        <ele>213.55</ele>
        <time>2021-01-25T12:11:29Z</time>
      </trkpt>
      <trkpt lat="43.90068" lon="5.18359">
        <ele>212.59</ele>
        <time>2021-01-25T12:11:39Z</time>
      </trkpt>
      <trkpt lat="43.90073" lon="5.18345">
        <ele>211.63</ele>
        <time>2021-01-25T12:11:58Z</time>
      </trkpt>
      <trkpt lat="43.90066" lon="5.18334">
        <ele>211.63</ele>
        <time>2021-01-25T12:12:19Z</time>
      </trkpt>
      <trkpt lat="43.90056" lon="5.18314">
        <ele>211.15</ele>
        <time>2021-01-25T12:12:33Z</time>
      </trkpt>
      <trkpt lat="43.90054" lon="5.18313">
        <ele>211.63</ele>
        <time>2021-01-25T12:12:35Z</time>
      </trkpt>
      <trkpt lat="43.90049" lon="5.18314">
        <ele>211.15</ele>
        <time>2021-01-25T12:12:41Z</time>
      </trkpt>
      <trkpt lat="43.89976" lon="5.18313">
        <ele>209.22</ele>
        <time>2021-01-25T12:13:35Z</time>
      </trkpt>
      <trkpt lat="43.89976" lon="5.18313">
        <ele>209.22</ele>
        <time>2021-01-25T12:14:44Z</time>
      </trkpt>
      <trkpt lat="43.90082" lon="5.18385">
        <ele>209.22</ele>
        <time>2021-01-25T12:18:07Z</time>
      </trkpt>
      <trkpt lat="43.90079" lon="5.1838">
        <ele>210.19</ele>
        <time>2021-01-25T12:18:17Z</time>
      </trkpt>
      <trkpt lat="43.90078" lon="5.18377">
        <ele>211.63</ele>
        <time>2021-01-25T12:18:20Z</time>
      </trkpt>
      <trkpt lat="43.90077" lon="5.18362">
        <ele>211.63</ele>
        <time>2021-01-25T12:18:48Z</time>
      </trkpt>
      <trkpt lat="43.90064" lon="5.18365">
        <ele>212.11</ele>
        <time>2021-01-25T12:19:05Z</time>
      </trkpt>
      <trkpt lat="43.90049" lon="5.1836">
        <ele>214.99</ele>
        <time>2021-01-25T12:19:23Z</time>
      </trkpt>
      <trkpt lat="43.90041" lon="5.18355">
        <ele>218.36</ele>
        <time>2021-01-25T12:19:37Z</time>
      </trkpt>
      <trkpt lat="43.90041" lon="5.1835">
        <ele>218.36</ele>
        <time>2021-01-25T12:20:00Z</time>
      </trkpt>
      <trkpt lat="43.90041" lon="5.18351">
        <ele>218.84</ele>
        <time>2021-01-25T12:21:30Z</time>
      </trkpt>
      <trkpt lat="43.90041" lon="5.18352">
        <ele>220.28</ele>
        <time>2021-01-25T12:22:00Z</time>
      </trkpt>
      <trkpt lat="43.9005" lon="5.18353">
        <ele>219.8</ele>
        <time>2021-01-25T12:22:20Z</time>
      </trkpt>
      <trkpt lat="43.90052" lon="5.18353">
        <ele>219.8</ele>
        <time>2021-01-25T12:22:22Z</time>
      </trkpt>
      <trkpt lat="43.90064" lon="5.1834">
        <ele>220.76</ele>
        <time>2021-01-25T12:22:39Z</time>
      </trkpt>
      <trkpt lat="43.90069" lon="5.1833">
        <ele>220.28</ele>
        <time>2021-01-25T12:22:49Z</time>
      </trkpt>
      <trkpt lat="43.90069" lon="5.18328">
        <ele>220.28</ele>
        <time>2021-01-25T12:22:51Z</time>
      </trkpt>
      <trkpt lat="43.9007" lon="5.18324">
        <ele>220.28</ele>
        <time>2021-01-25T12:22:54Z</time>
      </trkpt>
      <trkpt lat="43.90073" lon="5.18305">
        <ele>219.8</ele>
        <time>2021-01-25T12:23:10Z</time>
      </trkpt>
      <trkpt lat="43.90074" lon="5.18286">
        <ele>219.8</ele>
        <time>2021-01-25T12:23:27Z</time>
      </trkpt>
      <trkpt lat="43.90073" lon="5.18287">
        <ele>219.8</ele>
        <time>2021-01-25T12:23:59Z</time>
      </trkpt>
      <trkpt lat="43.9007" lon="5.18277">
        <ele>220.76</ele>
        <time>2021-01-25T12:24:18Z</time>
      </trkpt>
      <trkpt lat="43.90068" lon="5.18262">
        <ele>222.68</ele>
        <time>2021-01-25T12:24:36Z</time>
      </trkpt>
      <trkpt lat="43.90075" lon="5.18243">
        <ele>222.2</ele>
        <time>2021-01-25T12:24:52Z</time>
      </trkpt>
      <trkpt lat="43.9008" lon="5.18232">
        <ele>222.2</ele>
        <time>2021-01-25T12:25:00Z</time>
      </trkpt>
      <trkpt lat="43.90095" lon="5.18207">
        <ele>223.16</ele>
        <time>2021-01-25T12:25:19Z</time>
      </trkpt>
      <trkpt lat="43.90106" lon="5.18193">
        <ele>223.64</ele>
        <time>2021-01-25T12:25:32Z</time>
      </trkpt>
      <trkpt lat="43.90116" lon="5.1817">
        <ele>225.09</ele>
        <time>2021-01-25T12:25:50Z</time>
      </trkpt>
      <trkpt lat="43.90119" lon="5.18162">
        <ele>225.57</ele>
        <time>2021-01-25T12:25:56Z</time>
      </trkpt>
      <trkpt lat="43.90123" lon="5.18139">
        <ele>227.01</ele>
        <time>2021-01-25T12:26:12Z</time>
      </trkpt>
      <trkpt lat="43.90124" lon="5.18134">
        <ele>227.49</ele>
        <time>2021-01-25T12:26:15Z</time>
      </trkpt>
      <trkpt lat="43.90127" lon="5.18111">
        <ele>228.45</ele>
        <time>2021-01-25T12:26:31Z</time>
      </trkpt>
      <trkpt lat="43.90132" lon="5.18093">
        <ele>227.97</ele>
        <time>2021-01-25T12:26:47Z</time>
      </trkpt>
      <trkpt lat="43.90143" lon="5.18096">
        <ele>229.41</ele>
        <time>2021-01-25T12:27:04Z</time>
      </trkpt>
      <trkpt lat="43.90143" lon="5.18094">
        <ele>228.93</ele>
        <time>2021-01-25T12:27:26Z</time>
      </trkpt>
      <trkpt lat="43.90141" lon="5.18096">
        <ele>228.93</ele>
        <time>2021-01-25T12:27:48Z</time>
      </trkpt>
      <trkpt lat="43.90141" lon="5.18096">
        <ele>228.45</ele>
        <time>2021-01-25T12:28:16Z</time>
      </trkpt>
      <trkpt lat="43.90141" lon="5.18095">
        <ele>228.93</ele>
        <time>2021-01-25T12:28:43Z</time>
      </trkpt>
      <trkpt lat="43.90141" lon="5.18095">
        <ele>228.93</ele>
        <time>2021-01-25T12:29:05Z</time>
      </trkpt>
      <trkpt lat="43.90142" lon="5.18091">
        <ele>228.93</ele>
        <time>2021-01-25T12:29:24Z</time>
      </trkpt>
      <trkpt lat="43.90151" lon="5.18074">
        <ele>228.93</ele>
        <time>2021-01-25T12:29:46Z</time>
      </trkpt>
      <trkpt lat="43.90156" lon="5.18063">
        <ele>228.93</ele>
        <time>2021-01-25T12:29:58Z</time>
      </trkpt>
      <trkpt lat="43.9016" lon="5.1805">
        <ele>230.37</ele>
        <time>2021-01-25T12:30:07Z</time>
      </trkpt>
      <trkpt lat="43.90167" lon="5.18027">
        <ele>231.33</ele>
        <time>2021-01-25T12:30:26Z</time>
      </trkpt>
      <trkpt lat="43.90176" lon="5.18011">
        <ele>232.3</ele>
        <time>2021-01-25T12:30:41Z</time>
      </trkpt>
      <trkpt lat="43.90179" lon="5.18001">
        <ele>232.3</ele>
        <time>2021-01-25T12:30:52Z</time>
      </trkpt>
      <trkpt lat="43.9018" lon="5.17997">
        <ele>232.3</ele>
        <time>2021-01-25T12:30:55Z</time>
      </trkpt>
      <trkpt lat="43.90183" lon="5.17986">
        <ele>232.78</ele>
        <time>2021-01-25T12:31:04Z</time>
      </trkpt>
      <trkpt lat="43.90188" lon="5.17971">
        <ele>232.78</ele>
        <time>2021-01-25T12:31:16Z</time>
      </trkpt>
      <trkpt lat="43.902" lon="5.17949">
        <ele>233.26</ele>
        <time>2021-01-25T12:31:36Z</time>
      </trkpt>
      <trkpt lat="43.90203" lon="5.17943">
        <ele>232.78</ele>
        <time>2021-01-25T12:31:40Z</time>
      </trkpt>
      <trkpt lat="43.90211" lon="5.17915">
        <ele>233.74</ele>
        <time>2021-01-25T12:32:00Z</time>
      </trkpt>
      <trkpt lat="43.90221" lon="5.17893">
        <ele>235.18</ele>
        <time>2021-01-25T12:32:17Z</time>
      </trkpt>
      <trkpt lat="43.90227" lon="5.17867">
        <ele>236.62</ele>
        <time>2021-01-25T12:32:37Z</time>
      </trkpt>
      <trkpt lat="43.90232" lon="5.17845">
        <ele>237.1</ele>
        <time>2021-01-25T12:32:53Z</time>
      </trkpt>
      <trkpt lat="43.90238" lon="5.17827">
        <ele>237.58</ele>
        <time>2021-01-25T12:33:06Z</time>
      </trkpt>
      <trkpt lat="43.90237" lon="5.17823">
        <ele>237.58</ele>
        <time>2021-01-25T12:33:08Z</time>
      </trkpt>
      <trkpt lat="43.90242" lon="5.17794">
        <ele>238.54</ele>
        <time>2021-01-25T12:33:26Z</time>
      </trkpt>
      <trkpt lat="43.90247" lon="5.1777">
        <ele>239.02</ele>
        <time>2021-01-25T12:33:41Z</time>
      </trkpt>
      <trkpt lat="43.90252" lon="5.17751">
        <ele>239.51</ele>
        <time>2021-01-25T12:33:55Z</time>
      </trkpt>
      <trkpt lat="43.9026" lon="5.17723">
        <ele>239.99</ele>
        <time>2021-01-25T12:34:14Z</time>
      </trkpt>
      <trkpt lat="43.90267" lon="5.17699">
        <ele>240.95</ele>
        <time>2021-01-25T12:34:30Z</time>
      </trkpt>
      <trkpt lat="43.90267" lon="5.17668">
        <ele>241.43</ele>
        <time>2021-01-25T12:34:49Z</time>
      </trkpt>
      <trkpt lat="43.90264" lon="5.17646">
        <ele>241.43</ele>
        <time>2021-01-25T12:35:05Z</time>
      </trkpt>
      <trkpt lat="43.90259" lon="5.17618">
        <ele>241.43</ele>
        <time>2021-01-25T12:35:22Z</time>
      </trkpt>
      <trkpt lat="43.90254" lon="5.17595">
        <ele>240.47</ele>
        <time>2021-01-25T12:35:36Z</time>
      </trkpt>
      <trkpt lat="43.90252" lon="5.17559">
        <ele>239.51</ele>
        <time>2021-01-25T12:35:56Z</time>
      </trkpt>
      <trkpt lat="43.90257" lon="5.1753">
        <ele>239.51</ele>
        <time>2021-01-25T12:36:14Z</time>
      </trkpt>
      <trkpt lat="43.90266" lon="5.175">
        <ele>239.99</ele>
        <time>2021-01-25T12:36:34Z</time>
      </trkpt>
      <trkpt lat="43.90275" lon="5.17474">
        <ele>241.43</ele>
        <time>2021-01-25T12:36:52Z</time>
      </trkpt>
      <trkpt lat="43.90282" lon="5.17452">
        <ele>241.43</ele>
        <time>2021-01-25T12:37:07Z</time>
      </trkpt>
      <trkpt lat="43.9029" lon="5.17432">
        <ele>241.91</ele>
        <time>2021-01-25T12:37:21Z</time>
      </trkpt>
      <trkpt lat="43.903" lon="5.1741">
        <ele>241.43</ele>
        <time>2021-01-25T12:37:37Z</time>
      </trkpt>
      <trkpt lat="43.90301" lon="5.17406">
        <ele>241.43</ele>
        <time>2021-01-25T12:37:40Z</time>
      </trkpt>
      <trkpt lat="43.90306" lon="5.17392">
        <ele>241.43</ele>
        <time>2021-01-25T12:37:49Z</time>
      </trkpt>
      <trkpt lat="43.90321" lon="5.17378">
        <ele>240.95</ele>
        <time>2021-01-25T12:38:07Z</time>
      </trkpt>
      <trkpt lat="43.90336" lon="5.17367">
        <ele>241.91</ele>
        <time>2021-01-25T12:38:24Z</time>
      </trkpt>
      <trkpt lat="43.90337" lon="5.17355">
        <ele>243.35</ele>
        <time>2021-01-25T12:38:41Z</time>
      </trkpt>
      <trkpt lat="43.90336" lon="5.17355">
        <ele>243.35</ele>
        <time>2021-01-25T12:39:03Z</time>
      </trkpt>
      <trkpt lat="43.90334" lon="5.17356">
        <ele>243.83</ele>
        <time>2021-01-25T12:39:32Z</time>
      </trkpt>
      <trkpt lat="43.90334" lon="5.17356">
        <ele>243.35</ele>
        <time>2021-01-25T12:39:55Z</time>
      </trkpt>
      <trkpt lat="43.90334" lon="5.17356">
        <ele>242.87</ele>
        <time>2021-01-25T12:40:29Z</time>
      </trkpt>
      <trkpt lat="43.90334" lon="5.17355">
        <ele>243.35</ele>
        <time>2021-01-25T12:41:00Z</time>
      </trkpt>
      <trkpt lat="43.90334" lon="5.17353">
        <ele>243.35</ele>
        <time>2021-01-25T12:41:01Z</time>
      </trkpt>
      <trkpt lat="43.90333" lon="5.17345">
        <ele>243.35</ele>
        <time>2021-01-25T12:41:11Z</time>
      </trkpt>
      <trkpt lat="43.90332" lon="5.17337">
        <ele>243.35</ele>
        <time>2021-01-25T12:41:16Z</time>
      </trkpt>
      <trkpt lat="43.90335" lon="5.17308">
        <ele>243.83</ele>
        <time>2021-01-25T12:41:34Z</time>
      </trkpt>
      <trkpt lat="43.90337" lon="5.17303">
        <ele>243.35</ele>
        <time>2021-01-25T12:41:37Z</time>
      </trkpt>
      <trkpt lat="43.90339" lon="5.17287">
        <ele>243.35</ele>
        <time>2021-01-25T12:41:47Z</time>
      </trkpt>
      <trkpt lat="43.90337" lon="5.17262">
        <ele>242.87</ele>
        <time>2021-01-25T12:42:04Z</time>
      </trkpt>
      <trkpt lat="43.90336" lon="5.17237">
        <ele>242.87</ele>
        <time>2021-01-25T12:42:19Z</time>
      </trkpt>
      <trkpt lat="43.90335" lon="5.17204">
        <ele>243.35</ele>
        <time>2021-01-25T12:42:38Z</time>
      </trkpt>
      <trkpt lat="43.90339" lon="5.17174">
        <ele>242.87</ele>
        <time>2021-01-25T12:42:56Z</time>
      </trkpt>
      <trkpt lat="43.90341" lon="5.17136">
        <ele>243.35</ele>
        <time>2021-01-25T12:43:18Z</time>
      </trkpt>
      <trkpt lat="43.90341" lon="5.17108">
        <ele>243.35</ele>
        <time>2021-01-25T12:43:35Z</time>
      </trkpt>
      <trkpt lat="43.9034" lon="5.17081">
        <ele>242.39</ele>
        <time>2021-01-25T12:43:51Z</time>
      </trkpt>
      <trkpt lat="43.90337" lon="5.17057">
        <ele>241.43</ele>
        <time>2021-01-25T12:44:05Z</time>
      </trkpt>
      <trkpt lat="43.90329" lon="5.17026">
        <ele>240.95</ele>
        <time>2021-01-25T12:44:24Z</time>
      </trkpt>
      <trkpt lat="43.90324" lon="5.16997">
        <ele>239.99</ele>
        <time>2021-01-25T12:44:42Z</time>
      </trkpt>
      <trkpt lat="43.90322" lon="5.16971">
        <ele>239.51</ele>
        <time>2021-01-25T12:44:58Z</time>
      </trkpt>
      <trkpt lat="43.9032" lon="5.16936">
        <ele>239.99</ele>
        <time>2021-01-25T12:45:16Z</time>
      </trkpt>
      <trkpt lat="43.90321" lon="5.16922">
        <ele>239.02</ele>
        <time>2021-01-25T12:45:32Z</time>
      </trkpt>
      <trkpt lat="43.90318" lon="5.16905">
        <ele>238.06</ele>
        <time>2021-01-25T12:45:48Z</time>
      </trkpt>
      <trkpt lat="43.90316" lon="5.16881">
        <ele>237.58</ele>
        <time>2021-01-25T12:46:02Z</time>
      </trkpt>
      <trkpt lat="43.90314" lon="5.16862">
        <ele>237.1</ele>
        <time>2021-01-25T12:46:14Z</time>
      </trkpt>
      <trkpt lat="43.90313" lon="5.16855">
        <ele>237.1</ele>
        <time>2021-01-25T12:46:18Z</time>
      </trkpt>
      <trkpt lat="43.90312" lon="5.1683">
        <ele>236.14</ele>
        <time>2021-01-25T12:46:32Z</time>
      </trkpt>
      <trkpt lat="43.90311" lon="5.16801">
        <ele>235.18</ele>
        <time>2021-01-25T12:46:48Z</time>
      </trkpt>
      <trkpt lat="43.90308" lon="5.16777">
        <ele>234.7</ele>
        <time>2021-01-25T12:47:01Z</time>
      </trkpt>
      <trkpt lat="43.90303" lon="5.16747">
        <ele>233.26</ele>
        <time>2021-01-25T12:47:19Z</time>
      </trkpt>
      <trkpt lat="43.90302" lon="5.16741">
        <ele>232.78</ele>
        <time>2021-01-25T12:47:23Z</time>
      </trkpt>
      <trkpt lat="43.903" lon="5.16718">
        <ele>230.37</ele>
        <time>2021-01-25T12:47:40Z</time>
      </trkpt>
      <trkpt lat="43.90291" lon="5.16702">
        <ele>227.97</ele>
        <time>2021-01-25T12:47:59Z</time>
      </trkpt>
      <trkpt lat="43.90283" lon="5.16681">
        <ele>225.57</ele>
        <time>2021-01-25T12:48:21Z</time>
      </trkpt>
      <trkpt lat="43.90278" lon="5.16658">
        <ele>223.16</ele>
        <time>2021-01-25T12:48:43Z</time>
      </trkpt>
      <trkpt lat="43.90272" lon="5.16638">
        <ele>221.72</ele>
        <time>2021-01-25T12:49:05Z</time>
      </trkpt>
      <trkpt lat="43.90259" lon="5.16612">
        <ele>220.76</ele>
        <time>2021-01-25T12:49:28Z</time>
      </trkpt>
      <trkpt lat="43.9025" lon="5.16585">
        <ele>222.2</ele>
        <time>2021-01-25T12:49:53Z</time>
      </trkpt>
      <trkpt lat="43.9025" lon="5.1656">
        <ele>222.2</ele>
        <time>2021-01-25T12:50:15Z</time>
      </trkpt>
      <trkpt lat="43.90251" lon="5.16556">
        <ele>222.2</ele>
        <time>2021-01-25T12:50:18Z</time>
      </trkpt>
      <trkpt lat="43.90253" lon="5.16548">
        <ele>226.05</ele>
        <time>2021-01-25T12:50:23Z</time>
      </trkpt>
      <trkpt lat="43.90259" lon="5.16524">
        <ele>227.97</ele>
        <time>2021-01-25T12:50:42Z</time>
      </trkpt>
      <trkpt lat="43.90264" lon="5.16502">
        <ele>227.01</ele>
        <time>2021-01-25T12:51:03Z</time>
      </trkpt>
      <trkpt lat="43.90268" lon="5.16488">
        <ele>223.64</ele>
        <time>2021-01-25T12:51:21Z</time>
      </trkpt>
      <trkpt lat="43.9027" lon="5.16482">
        <ele>220.76</ele>
        <time>2021-01-25T12:51:30Z</time>
      </trkpt>
      <trkpt lat="43.90272" lon="5.16459">
        <ele>218.84</ele>
        <time>2021-01-25T12:51:47Z</time>
      </trkpt>
      <trkpt lat="43.90274" lon="5.16442">
        <ele>219.8</ele>
        <time>2021-01-25T12:52:01Z</time>
      </trkpt>
      <trkpt lat="43.90277" lon="5.16419">
        <ele>220.76</ele>
        <time>2021-01-25T12:52:21Z</time>
      </trkpt>
      <trkpt lat="43.90282" lon="5.16401">
        <ele>223.64</ele>
        <time>2021-01-25T12:52:39Z</time>
      </trkpt>
      <trkpt lat="43.90284" lon="5.1638">
        <ele>226.53</ele>
        <time>2021-01-25T12:53:00Z</time>
      </trkpt>
      <trkpt lat="43.90286" lon="5.16357">
        <ele>227.97</ele>
        <time>2021-01-25T12:53:18Z</time>
      </trkpt>
      <trkpt lat="43.9029" lon="5.16338">
        <ele>228.93</ele>
        <time>2021-01-25T12:53:33Z</time>
      </trkpt>
      <trkpt lat="43.90291" lon="5.16334">
        <ele>228.93</ele>
        <time>2021-01-25T12:53:36Z</time>
      </trkpt>
      <trkpt lat="43.90293" lon="5.16309">
        <ele>229.89</ele>
        <time>2021-01-25T12:53:55Z</time>
      </trkpt>
      <trkpt lat="43.90297" lon="5.16288">
        <ele>230.37</ele>
        <time>2021-01-25T12:54:11Z</time>
      </trkpt>
      <trkpt lat="43.90297" lon="5.16285">
        <ele>230.37</ele>
        <time>2021-01-25T12:54:13Z</time>
      </trkpt>
      <trkpt lat="43.90297" lon="5.16281">
        <ele>230.37</ele>
        <time>2021-01-25T12:54:16Z</time>
      </trkpt>
      <trkpt lat="43.90302" lon="5.16252">
        <ele>232.78</ele>
        <time>2021-01-25T12:54:36Z</time>
      </trkpt>
      <trkpt lat="43.90302" lon="5.16244">
        <ele>232.78</ele>
        <time>2021-01-25T12:54:42Z</time>
      </trkpt>
      <trkpt lat="43.90303" lon="5.16225">
        <ele>234.22</ele>
        <time>2021-01-25T12:54:57Z</time>
      </trkpt>
      <trkpt lat="43.90295" lon="5.16216">
        <ele>233.26</ele>
        <time>2021-01-25T12:55:17Z</time>
      </trkpt>
      <trkpt lat="43.90293" lon="5.16215">
        <ele>231.81</ele>
        <time>2021-01-25T12:55:48Z</time>
      </trkpt>
      <trkpt lat="43.90294" lon="5.16218">
        <ele>233.26</ele>
        <time>2021-01-25T12:56:18Z</time>
      </trkpt>
      <trkpt lat="43.90277" lon="5.16207">
        <ele>233.26</ele>
        <time>2021-01-25T12:56:39Z</time>
      </trkpt>
      <trkpt lat="43.90257" lon="5.16189">
        <ele>232.78</ele>
        <time>2021-01-25T12:56:59Z</time>
      </trkpt>
      <trkpt lat="43.90236" lon="5.16179">
        <ele>230.85</ele>
        <time>2021-01-25T12:57:19Z</time>
      </trkpt>
      <trkpt lat="43.90217" lon="5.16172">
        <ele>230.37</ele>
        <time>2021-01-25T12:57:37Z</time>
      </trkpt>
      <trkpt lat="43.90199" lon="5.16159">
        <ele>229.41</ele>
        <time>2021-01-25T12:57:56Z</time>
      </trkpt>
      <trkpt lat="43.90185" lon="5.16145">
        <ele>228.45</ele>
        <time>2021-01-25T12:58:11Z</time>
      </trkpt>
      <trkpt lat="43.90182" lon="5.16143">
        <ele>228.45</ele>
        <time>2021-01-25T12:58:14Z</time>
      </trkpt>
      <trkpt lat="43.90167" lon="5.16122">
        <ele>228.45</ele>
        <time>2021-01-25T12:58:33Z</time>
      </trkpt>
      <trkpt lat="43.90149" lon="5.16111">
        <ele>227.01</ele>
        <time>2021-01-25T12:58:52Z</time>
      </trkpt>
      <trkpt lat="43.90127" lon="5.16111">
        <ele>225.57</ele>
        <time>2021-01-25T12:59:12Z</time>
      </trkpt>
      <trkpt lat="43.90107" lon="5.16086">
        <ele>223.64</ele>
        <time>2021-01-25T12:59:34Z</time>
      </trkpt>
      <trkpt lat="43.90106" lon="5.16085">
        <ele>223.64</ele>
        <time>2021-01-25T12:59:35Z</time>
      </trkpt>
      <trkpt lat="43.9009" lon="5.16065">
        <ele>223.16</ele>
        <time>2021-01-25T12:59:54Z</time>
      </trkpt>
      <trkpt lat="43.90072" lon="5.16049">
        <ele>222.68</ele>
        <time>2021-01-25T13:00:14Z</time>
      </trkpt>
      <trkpt lat="43.90053" lon="5.1603">
        <ele>222.2</ele>
        <time>2021-01-25T13:00:36Z</time>
      </trkpt>
      <trkpt lat="43.90034" lon="5.16011">
        <ele>221.24</ele>
        <time>2021-01-25T13:00:56Z</time>
      </trkpt>
      <trkpt lat="43.90022" lon="5.16">
        <ele>220.76</ele>
        <time>2021-01-25T13:01:08Z</time>
      </trkpt>
      <trkpt lat="43.90007" lon="5.15989">
        <ele>219.8</ele>
        <time>2021-01-25T13:01:25Z</time>
      </trkpt>
      <trkpt lat="43.89985" lon="5.15983">
        <ele>217.4</ele>
        <time>2021-01-25T13:01:47Z</time>
      </trkpt>
      <trkpt lat="43.8997" lon="5.15965">
        <ele>215.95</ele>
        <time>2021-01-25T13:02:11Z</time>
      </trkpt>
      <trkpt lat="43.89961" lon="5.15935">
        <ele>215.95</ele>
        <time>2021-01-25T13:02:37Z</time>
      </trkpt>
      <trkpt lat="43.89955" lon="5.15909">
        <ele>217.4</ele>
        <time>2021-01-25T13:02:57Z</time>
      </trkpt>
      <trkpt lat="43.89948" lon="5.15891">
        <ele>218.36</ele>
        <time>2021-01-25T13:03:12Z</time>
      </trkpt>
      <trkpt lat="43.89938" lon="5.15875">
        <ele>218.36</ele>
        <time>2021-01-25T13:03:27Z</time>
      </trkpt>
      <trkpt lat="43.89932" lon="5.15858">
        <ele>218.84</ele>
        <time>2021-01-25T13:03:43Z</time>
      </trkpt>
      <trkpt lat="43.89927" lon="5.1585">
        <ele>217.88</ele>
        <time>2021-01-25T13:03:50Z</time>
      </trkpt>
      <trkpt lat="43.89913" lon="5.1583">
        <ele>217.4</ele>
        <time>2021-01-25T13:04:08Z</time>
      </trkpt>
      <trkpt lat="43.89905" lon="5.15814">
        <ele>217.4</ele>
        <time>2021-01-25T13:04:22Z</time>
      </trkpt>
      <trkpt lat="43.89903" lon="5.15777">
        <ele>219.8</ele>
        <time>2021-01-25T13:04:44Z</time>
      </trkpt>
      <trkpt lat="43.89904" lon="5.15754">
        <ele>220.76</ele>
        <time>2021-01-25T13:05:01Z</time>
      </trkpt>
      <trkpt lat="43.89903" lon="5.15742">
        <ele>221.24</ele>
        <time>2021-01-25T13:05:08Z</time>
      </trkpt>
      <trkpt lat="43.89907" lon="5.15719">
        <ele>222.2</ele>
        <time>2021-01-25T13:05:24Z</time>
      </trkpt>
      <trkpt lat="43.8991" lon="5.15702">
        <ele>223.16</ele>
        <time>2021-01-25T13:05:39Z</time>
      </trkpt>
      <trkpt lat="43.89901" lon="5.15679">
        <ele>223.16</ele>
        <time>2021-01-25T13:06:01Z</time>
      </trkpt>
      <trkpt lat="43.89891" lon="5.15668">
        <ele>222.2</ele>
        <time>2021-01-25T13:06:12Z</time>
      </trkpt>
      <trkpt lat="43.89873" lon="5.15647">
        <ele>220.76</ele>
        <time>2021-01-25T13:06:33Z</time>
      </trkpt>
      <trkpt lat="43.89863" lon="5.15637">
        <ele>220.28</ele>
        <time>2021-01-25T13:06:43Z</time>
      </trkpt>
      <trkpt lat="43.89853" lon="5.15617">
        <ele>219.32</ele>
        <time>2021-01-25T13:07:00Z</time>
      </trkpt>
      <trkpt lat="43.89852" lon="5.15616">
        <ele>219.32</ele>
        <time>2021-01-25T13:07:01Z</time>
      </trkpt>
      <trkpt lat="43.89842" lon="5.15601">
        <ele>217.88</ele>
        <time>2021-01-25T13:07:15Z</time>
      </trkpt>
      <trkpt lat="43.89837" lon="5.15588">
        <ele>217.88</ele>
        <time>2021-01-25T13:07:24Z</time>
      </trkpt>
      <trkpt lat="43.89836" lon="5.15585">
        <ele>217.88</ele>
        <time>2021-01-25T13:07:26Z</time>
      </trkpt>
      <trkpt lat="43.8983" lon="5.15575">
        <ele>216.43</ele>
        <time>2021-01-25T13:07:32Z</time>
      </trkpt>
      <trkpt lat="43.89815" lon="5.15554">
        <ele>216.91</ele>
        <time>2021-01-25T13:07:50Z</time>
      </trkpt>
      <trkpt lat="43.89814" lon="5.15553">
        <ele>216.43</ele>
        <time>2021-01-25T13:07:51Z</time>
      </trkpt>
      <trkpt lat="43.89802" lon="5.15532">
        <ele>215.47</ele>
        <time>2021-01-25T13:08:08Z</time>
      </trkpt>
      <trkpt lat="43.89788" lon="5.1552">
        <ele>213.55</ele>
        <time>2021-01-25T13:08:21Z</time>
      </trkpt>
      <trkpt lat="43.89772" lon="5.15504">
        <ele>212.11</ele>
        <time>2021-01-25T13:08:41Z</time>
      </trkpt>
      <trkpt lat="43.89756" lon="5.15489">
        <ele>211.15</ele>
        <time>2021-01-25T13:08:58Z</time>
      </trkpt>
    </trkseg>
  </trk>
</gpx>